Observation data for Romero 11 SSW on 05/26/2019      Previous  Date  Next       Current Mesonet Observations  Soil Data  Daily Summary Page  Observations in Plain Language
KBR1 260500Z 17012KT 19/17 A2995 RMK A01 T01940168  RH  085%=      5-min Rain = 0
KBR1 260501Z 17012KT 19/17 A2995 RMK A01 T01940169  RH  085%=      5-min Rain = 0
KBR1 260502Z 18013KT 19/17 A2995 RMK A01 T01940169  RH  085%=      5-min Rain = 0
KBR1 260503Z 18011KT 19/17 A2995 RMK A01 T01940169  RH  085%=      5-min Rain = 0
KBR1 260504Z 17010KT 19/17 A2995 RMK A01 T01940169  RH  085%=      5-min Rain = 0
KBR1 260505Z 17013KT 19/17 A2995 RMK A01 T01930169  RH  086%=      5-min Rain = 0
KBR1 260506Z 18011KT 19/17 A2995 RMK A01 T01930169  RH  086%=      5-min Rain = 0
KBR1 260507Z 18011KT 19/17 A2995 RMK A01 T01930169  RH  086%=      5-min Rain = 0
KBR1 260508Z 17010KT 19/17 A2995 RMK A01 T01930169  RH  086%=      5-min Rain = 0
KBR1 260509Z 18010KT 19/17 A2995 RMK A01 T01930169  RH  086%=      5-min Rain = 0
KBR1 260510Z 17010KT 19/17 A2995 RMK A01 T01920169  RH  086%=      5-min Rain = 0
KBR1 260511Z 18010KT 19/17 A2995 RMK A01 T01920169  RH  086%=      5-min Rain = 0
KBR1 260512Z 18010KT 19/17 A2995 RMK A01 T01920169  RH  087%=      5-min Rain = 0
KBR1 260513Z 18011KT 19/17 A2995 RMK A01 T01920169  RH  087%=      5-min Rain = 0
KBR1 260514Z 18012KT 19/17 A2995 RMK A01 T01920169  RH  087%=      5-min Rain = 0
KBR1 260515Z 18010KT 19/17 A2995 RMK A01 T01920170  RH  087%=      5-min Rain = 0
KBR1 260516Z 18013KT 19/17 A2995 RMK A01 T01910169  RH  087%=      5-min Rain = 0
KBR1 260517Z 18011KT 19/17 A2995 RMK A01 T01920170  RH  087%=      5-min Rain = 0
KBR1 260518Z 18010KT 19/17 A2995 RMK A01 T01930170  RH  087%=      5-min Rain = 0
KBR1 260519Z 18011KT 19/17 A2995 RMK A01 T01930171  RH  087%=      5-min Rain = 0
KBR1 260520Z 18011KT 19/17 A2995 RMK A01 T01930171  RH  087%=      5-min Rain = 0
KBR1 260521Z 18011KT 19/17 A2995 RMK A01 T01930171  RH  087%=      5-min Rain = 0
KBR1 260522Z 18011KT 19/17 A2995 RMK A01 T01930171  RH  087%=      5-min Rain = 0
KBR1 260523Z 18010KT 19/17 A2995 RMK A01 T01930170  RH  087%=      5-min Rain = 0
KBR1 260524Z 18010KT 19/17 A2995 RMK A01 T01920170  RH  087%=      5-min Rain = 0
KBR1 260525Z 18010KT 19/17 A2995 RMK A01 T01910170  RH  088%=      5-min Rain = 0
KBR1 260526Z 18010KT 19/17 A2995 RMK A01 T01910170  RH  088%=      5-min Rain = 0
KBR1 260527Z 18010KT 19/17 A2995 RMK A01 T01920171  RH  088%=      5-min Rain = 0
KBR1 260528Z 18008KT 19/17 A2995 RMK A01 T01920171  RH  088%=      5-min Rain = 0
KBR1 260529Z 18008KT 19/17 A2995 RMK A01 T01920171  RH  088%=      5-min Rain = 0
KBR1 260530Z 18008KT 19/17 A2995 RMK A01 T01920171  RH  088%=      5-min Rain = 0
KBR1 260531Z 19007KT 19/17 A2995 RMK A01 T01920172  RH  088%=      5-min Rain = 0
KBR1 260532Z 18006KT 19/17 A2995 RMK A01 T01930172  RH  088%=      5-min Rain = 0
KBR1 260533Z 18005KT 19/17 A2995 RMK A01 T01930171  RH  087%=      5-min Rain = 0
KBR1 260534Z 19005KT 19/17 A2995 RMK A01 T01930171  RH  087%=      5-min Rain = 0
KBR1 260535Z 19005KT 19/17 A2995 RMK A01 T01920171  RH  087%=      5-min Rain = 0
KBR1 260536Z 19004KT 19/17 A2995 RMK A01 T01910170  RH  087%=      5-min Rain = 0
KBR1 260537Z 19003KT 19/17 A2995 RMK A01 T01900169  RH  088%=      5-min Rain = 0
KBR1 260538Z 19004KT 19/17 A2995 RMK A01 T01890170  RH  089%=      5-min Rain = 0
KBR1 260539Z 21006KT 19/17 A2995 RMK A01 T01900171  RH  089%=      5-min Rain = 0
KBR1 260540Z 19005KT 19/17 A2995 RMK A01 T01910172  RH  089%=      5-min Rain = 0
KBR1 260541Z 20005KT 19/17 A2995 RMK A01 T01920172  RH  088%=      5-min Rain = 0
KBR1 260542Z 20006KT 19/17 A2995 RMK A01 T01920171  RH  088%=      5-min Rain = 0
KBR1 260543Z 18005KT 19/17 A2995 RMK A01 T01920172  RH  088%=      5-min Rain = 0
KBR1 260544Z 18007KT 19/17 A2995 RMK A01 T01920172  RH  088%=      5-min Rain = 0
KBR1 260545Z 19007KT 19/17 A2995 RMK A01 T01920173  RH  088%=      5-min Rain = 0
KBR1 260546Z 18009KT 19/17 A2995 RMK A01 T01930173  RH  088%=      5-min Rain = 0
KBR1 260547Z 18008KT 19/17 A2995 RMK A01 T01940174  RH  088%=      5-min Rain = 0
KBR1 260548Z 18008KT 19/17 A2995 RMK A01 T01940174  RH  088%=      5-min Rain = 0
KBR1 260549Z 18007KT 19/17 A2995 RMK A01 T01940173  RH  088%=      5-min Rain = 0
KBR1 260550Z 18008KT 19/17 A2995 RMK A01 T01930173  RH  088%=      5-min Rain = 0
KBR1 260551Z 18007KT 19/17 A2995 RMK A01 T01920173  RH  089%=      5-min Rain = 0
KBR1 260552Z 18008KT 19/17 A2995 RMK A01 T01920173  RH  089%=      5-min Rain = 0
KBR1 260553Z 18007KT 19/17 A2995 RMK A01 T01920173  RH  089%=      5-min Rain = 0
KBR1 260554Z 18007KT 19/17 A2995 RMK A01 T01920174  RH  089%=      5-min Rain = 0
KBR1 260555Z 18006KT 19/17 A2995 RMK A01 T01910173  RH  089%=      5-min Rain = 0
KBR1 260556Z 18008KT 19/17 A2995 RMK A01 T01910173  RH  090%=      5-min Rain = 0
KBR1 260557Z 18008KT 19/17 A2995 RMK A01 T01920174  RH  089%=      5-min Rain = 0
KBR1 260558Z 17007KT 19/17 A2995 RMK A01 T01920174  RH  089%=      5-min Rain = 0
KBR1 260559Z 18008KT 19/17 A2995 RMK A01 T01930173  RH  089%=      5-min Rain = 0
KBR1 260600Z 18009KT 19/17 A2995 RMK A01 T01930174  RH  089%=      5-min Rain = 0
KBR1 260601Z 18007KT 19/17 A2995 RMK A01 T01930174  RH  089%=      5-min Rain = 0
KBR1 260602Z 18009KT 19/17 A2995 RMK A01 T01940174  RH  088%=      5-min Rain = 0
KBR1 260603Z 18008KT 19/17 A2995 RMK A01 T01940174  RH  088%=      5-min Rain = 0
KBR1 260604Z 19007KT 19/17 A2995 RMK A01 T01930173  RH  088%=      5-min Rain = 0
KBR1 260605Z 18009KT 19/17 A2995 RMK A01 T01920173  RH  089%=      5-min Rain = 0
KBR1 260606Z 19010KT 19/17 A2995 RMK A01 T01920174  RH  089%=      5-min Rain = 0
KBR1 260607Z 18008KT 19/17 A2995 RMK A01 T01920174  RH  089%=      5-min Rain = 0
KBR1 260608Z 18009KT 19/17 A2995 RMK A01 T01930174  RH  089%=      5-min Rain = 0
KBR1 260609Z 18009KT 19/17 A2995 RMK A01 T01930174  RH  089%=      5-min Rain = 0
KBR1 260610Z 18009KT 19/17 A2995 RMK A01 T01930174  RH  089%=      5-min Rain = 0
KBR1 260611Z 18008KT 19/17 A2995 RMK A01 T01940174  RH  088%=      5-min Rain = 0
KBR1 260612Z 19009KT 19/17 A2995 RMK A01 T01930174  RH  088%=      5-min Rain = 0
KBR1 260613Z 18009KT 19/17 A2995 RMK A01 T01930174  RH  089%=      5-min Rain = 0
KBR1 260614Z 19010KT 19/17 A2995 RMK A01 T01930174  RH  089%=      5-min Rain = 0
KBR1 260615Z 19008KT 19/17 A2995 RMK A01 T01930174  RH  089%=      5-min Rain = 0
KBR1 260616Z 18008KT 19/17 A2995 RMK A01 T01930173  RH  088%=      5-min Rain = 0
KBR1 260617Z 18008KT 19/17 A2995 RMK A01 T01920173  RH  089%=      5-min Rain = 0
KBR1 260618Z 18008KT 19/17 A2995 RMK A01 T01920173  RH  089%=      5-min Rain = 0
KBR1 260619Z 18007KT 19/17 A2995 RMK A01 T01910173  RH  089%=      5-min Rain = 0
KBR1 260620Z 18007KT 19/17 A2995 RMK A01 T01910173  RH  090%=      5-min Rain = 0
KBR1 260621Z 18007KT 19/17 A2995 RMK A01 T01910174  RH  090%=      5-min Rain = 0
KBR1 260622Z 18008KT 19/17 A2995 RMK A01 T01910173  RH  090%=      5-min Rain = 0
KBR1 260623Z 18007KT 19/17 A2995 RMK A01 T01910174  RH  090%=      5-min Rain = 0
KBR1 260624Z 18007KT 19/17 A2995 RMK A01 T01910173  RH  090%=      5-min Rain = 0
KBR1 260625Z 18007KT 19/17 A2995 RMK A01 T01910174  RH  090%=      5-min Rain = 0
KBR1 260626Z 18008KT 19/17 A2995 RMK A01 T01900173  RH  090%=      5-min Rain = 0
KBR1 260627Z 18008KT 19/17 A2995 RMK A01 T01910174  RH  090%=      5-min Rain = 0
KBR1 260628Z 18007KT 19/17 A2995 RMK A01 T01900173  RH  090%=      5-min Rain = 0
KBR1 260629Z 18008KT 19/17 A2995 RMK A01 T01900173  RH  090%=      5-min Rain = 0
KBR1 260630Z 18007KT 19/17 A2995 RMK A01 T01910173  RH  090%=      5-min Rain = 0
KBR1 260631Z 18007KT 19/17 A2995 RMK A01 T01900173  RH  090%=      5-min Rain = 0
KBR1 260632Z 18007KT 19/17 A2995 RMK A01 T01890173  RH  090%=      5-min Rain = 0
KBR1 260633Z 18007KT 19/17 A2995 RMK A01 T01890173  RH  090%=      5-min Rain = 0
KBR1 260634Z 18007KT 19/17 A2995 RMK A01 T01890173  RH  090%=      5-min Rain = 0
KBR1 260635Z 17007KT 19/17 A2995 RMK A01 T01890173  RH  090%=      5-min Rain = 0
KBR1 260636Z 17006KT 19/17 A2995 RMK A01 T01890172  RH  090%=      5-min Rain = 0
KBR1 260637Z 18006KT 19/17 A2995 RMK A01 T01880172  RH  090%=      5-min Rain = 0
KBR1 260638Z 18007KT 19/17 A2995 RMK A01 T01880172  RH  090%=      5-min Rain = 0
KBR1 260639Z 17007KT 19/17 A2995 RMK A01 T01880172  RH  091%=      5-min Rain = 0
KBR1 260640Z 18007KT 19/17 A2995 RMK A01 T01870172  RH  091%=      5-min Rain = 0
KBR1 260641Z 17007KT 19/17 A2995 RMK A01 T01870171  RH  090%=      5-min Rain = 0
KBR1 260642Z 17007KT 19/17 A2994 RMK A01 T01870171  RH  091%=      5-min Rain = 0
KBR1 260643Z 17007KT 19/17 A2994 RMK A01 T01870171  RH  091%=      5-min Rain = 0
KBR1 260644Z 17008KT 19/17 A2994 RMK A01 T01870171  RH  091%=      5-min Rain = 0
KBR1 260645Z 17008KT 19/17 A2994 RMK A01 T01870172  RH  091%=      5-min Rain = 0
KBR1 260646Z 17007KT 19/17 A2994 RMK A01 T01880172  RH  091%=      5-min Rain = 0
KBR1 260647Z 17008KT 19/17 A2994 RMK A01 T01880172  RH  090%=      5-min Rain = 0
KBR1 260648Z 17008KT 19/17 A2994 RMK A01 T01890173  RH  090%=      5-min Rain = 0
KBR1 260649Z 17007KT 19/17 A2994 RMK A01 T01900172  RH  090%=      5-min Rain = 0
KBR1 260650Z 17008KT 19/17 A2994 RMK A01 T01890172  RH  089%=      5-min Rain = 0
KBR1 260651Z 18007KT 19/17 A2994 RMK A01 T01900172  RH  089%=      5-min Rain = 0
KBR1 260652Z 18007KT 19/17 A2994 RMK A01 T01890172  RH  090%=      5-min Rain = 0
KBR1 260653Z 18007KT 19/17 A2994 RMK A01 T01890171  RH  090%=      5-min Rain = 0
KBR1 260654Z 18007KT 19/17 A2994 RMK A01 T01880171  RH  090%=      5-min Rain = 0
KBR1 260655Z 18007KT 19/17 A2994 RMK A01 T01880171  RH  090%=      5-min Rain = 0
KBR1 260656Z 18008KT 19/17 A2995 RMK A01 T01880171  RH  090%=      5-min Rain = 0
KBR1 260657Z 18007KT 19/17 A2995 RMK A01 T01880170  RH  090%=      5-min Rain = 0
KBR1 260658Z 18008KT 19/17 A2995 RMK A01 T01880171  RH  090%=      5-min Rain = 0
KBR1 260659Z 18008KT 19/17 A2995 RMK A01 T01890172  RH  090%=      5-min Rain = 0
KBR1 260700Z 18007KT 19/17 A2995 RMK A01 T01890171  RH  089%=      5-min Rain = 0
KBR1 260701Z 18006KT 19/17 A2995 RMK A01 T01890171  RH  089%=      5-min Rain = 0
KBR1 260702Z 19006KT 19/17 A2995 RMK A01 T01870170  RH  089%=      5-min Rain = 0
KBR1 260703Z 19007KT 19/17 A2994 RMK A01 T01870170  RH  090%=      5-min Rain = 0
KBR1 260704Z 18006KT 19/17 A2994 RMK A01 T01870170  RH  090%=      5-min Rain = 0
KBR1 260705Z 19007KT 19/17 A2995 RMK A01 T01870170  RH  090%=      5-min Rain = 0
KBR1 260706Z 19007KT 19/17 A2995 RMK A01 T01870170  RH  090%=      5-min Rain = 0
KBR1 260707Z 19007KT 19/17 A2995 RMK A01 T01870170  RH  090%=      5-min Rain = 0
KBR1 260708Z 19007KT 19/17 A2995 RMK A01 T01880170  RH  089%=      5-min Rain = 0
KBR1 260709Z 19007KT 19/17 A2995 RMK A01 T01880170  RH  089%=      5-min Rain = 0
KBR1 260710Z 18007KT 19/17 A2995 RMK A01 T01870169  RH  089%=      5-min Rain = 0
KBR1 260711Z 19007KT 19/17 A2995 RMK A01 T01870169  RH  089%=      5-min Rain = 0
KBR1 260712Z 19008KT 19/17 A2995 RMK A01 T01860169  RH  090%=      5-min Rain = 0
KBR1 260713Z 19008KT 19/17 A2995 RMK A01 T01860169  RH  090%=      5-min Rain = 0
KBR1 260714Z 19008KT 19/17 A2995 RMK A01 T01860168  RH  090%=      5-min Rain = 0
KBR1 260715Z 19008KT 19/17 A2995 RMK A01 T01860169  RH  090%=      5-min Rain = 0
KBR1 260716Z 19007KT 19/17 A2995 RMK A01 T01860169  RH  090%=      5-min Rain = 0
KBR1 260717Z 19008KT 19/17 A2995 RMK A01 T01850168  RH  090%=      5-min Rain = 0
KBR1 260718Z 19007KT 19/17 A2995 RMK A01 T01850169  RH  090%=      5-min Rain = 0
KBR1 260719Z 19008KT 19/17 A2995 RMK A01 T01850168  RH  090%=      5-min Rain = 0
KBR1 260720Z 19008KT 19/17 A2995 RMK A01 T01850169  RH  090%=      5-min Rain = 0
KBR1 260721Z 19008KT 19/17 A2995 RMK A01 T01860169  RH  090%=      5-min Rain = 0
KBR1 260722Z 19008KT 19/17 A2995 RMK A01 T01850169  RH  090%=      5-min Rain = 0
KBR1 260723Z 19007KT 19/17 A2995 RMK A01 T01850168  RH  090%=      5-min Rain = 0
KBR1 260724Z 18007KT 19/17 A2995 RMK A01 T01850168  RH  090%=      5-min Rain = 0
KBR1 260725Z 18008KT 19/17 A2995 RMK A01 T01850168  RH  090%=      5-min Rain = 0
KBR1 260726Z 18008KT 19/17 A2995 RMK A01 T01850168  RH  090%=      5-min Rain = 0
KBR1 260727Z 19007KT 19/17 A2995 RMK A01 T01850168  RH  090%=      5-min Rain = 0
KBR1 260728Z 19007KT 18/17 A2995 RMK A01 T01840168  RH  090%=      5-min Rain = 0
KBR1 260729Z 19007KT 18/17 A2995 RMK A01 T01840168  RH  090%=      5-min Rain = 0
KBR1 260730Z 19007KT 18/17 A2995 RMK A01 T01840168  RH  090%=      5-min Rain = 0
KBR1 260731Z 19008KT 18/17 A2995 RMK A01 T01840168  RH  090%=      5-min Rain = 0
KBR1 260732Z 19007KT 19/17 A2995 RMK A01 T01860169  RH  090%=      5-min Rain = 0
KBR1 260733Z 19007KT 19/17 A2995 RMK A01 T01860169  RH  090%=      5-min Rain = 0
KBR1 260734Z 19007KT 19/17 A2996 RMK A01 T01860169  RH  089%=      5-min Rain = 0
KBR1 260735Z 20006KT 19/17 A2996 RMK A01 T01860168  RH  089%=      5-min Rain = 0
KBR1 260736Z 19007KT 19/17 A2996 RMK A01 T01850167  RH  089%=      5-min Rain = 0
KBR1 260737Z 20007KT 18/17 A2996 RMK A01 T01840167  RH  090%=      5-min Rain = 0
KBR1 260738Z 20006KT 18/17 A2996 RMK A01 T01830167  RH  090%=      5-min Rain = 0
KBR1 260739Z 20006KT 18/17 A2996 RMK A01 T01830167  RH  090%=      5-min Rain = 0
KBR1 260740Z 21005KT 18/17 A2996 RMK A01 T01830167  RH  090%=      5-min Rain = 0
KBR1 260741Z 22005KT 18/17 A2996 RMK A01 T01830166  RH  090%=      5-min Rain = 0
KBR1 260742Z 22005KT 18/17 A2996 RMK A01 T01820165  RH  090%=      5-min Rain = 0
KBR1 260743Z 22005KT 18/16 A2996 RMK A01 T01800164  RH  090%=      5-min Rain = 0
KBR1 260744Z 22005KT 18/17 A2996 RMK A01 T01800165  RH  091%=      5-min Rain = 0
KBR1 260745Z 24004KT 18/16 A2996 RMK A01 T01800164  RH  091%=      5-min Rain = 0
KBR1 260746Z 25004KT 18/16 A2996 RMK A01 T01790164  RH  091%=      5-min Rain = 0
KBR1 260747Z 25004KT 18/16 A2996 RMK A01 T01780162  RH  091%=      5-min Rain = 0
KBR1 260748Z 25004KT 18/16 A2996 RMK A01 T01770162  RH  091%=      5-min Rain = 0
KBR1 260749Z 25005KT 18/16 A2996 RMK A01 T01760163  RH  092%=      5-min Rain = 0
KBR1 260750Z 25005KT 18/16 A2996 RMK A01 T01760163  RH  092%=      5-min Rain = 0
KBR1 260751Z 24005KT 18/16 A2996 RMK A01 T01760163  RH  092%=      5-min Rain = 0
KBR1 260752Z 25004KT 18/16 A2996 RMK A01 T01770163  RH  092%=      5-min Rain = 0
KBR1 260753Z 25003KT 18/16 A2996 RMK A01 T01760163  RH  092%=      5-min Rain = 0
KBR1 260754Z 23003KT 18/16 A2996 RMK A01 T01760163  RH  092%=      5-min Rain = 0
KBR1 260755Z 23003KT 18/16 A2996 RMK A01 T01760163  RH  092%=      5-min Rain = 0
KBR1 260756Z 23003KT 18/16 A2996 RMK A01 T01760163  RH  092%=      5-min Rain = 0
KBR1 260757Z 23003KT 18/16 A2996 RMK A01 T01760164  RH  093%=      5-min Rain = 0
KBR1 260758Z 22003KT 18/17 A2996 RMK A01 T01760165  RH  093%=      5-min Rain = 0
KBR1 260759Z 21004KT 18/16 A2996 RMK A01 T01760164  RH  092%=      5-min Rain = 0
KBR1 260800Z 21004KT 18/17 A2996 RMK A01 T01760165  RH  093%=      5-min Rain = 0
KBR1 260801Z 21004KT 18/17 A2996 RMK A01 T01770165  RH  093%=      5-min Rain = 0
KBR1 260802Z 21004KT 18/17 A2996 RMK A01 T01780165  RH  092%=      5-min Rain = 0
KBR1 260803Z 20005KT 18/17 A2996 RMK A01 T01780165  RH  092%=      5-min Rain = 0
KBR1 260804Z 20005KT 18/17 A2996 RMK A01 T01790165  RH  092%=      5-min Rain = 0
KBR1 260805Z 20005KT 18/17 A2996 RMK A01 T01800165  RH  091%=      5-min Rain = 0
KBR1 260806Z 21004KT 18/17 A2996 RMK A01 T01800165  RH  091%=      5-min Rain = 0
KBR1 260807Z 21004KT 18/17 A2996 RMK A01 T01800165  RH  091%=      5-min Rain = 0
KBR1 260808Z 21004KT 18/16 A2996 RMK A01 T01800164  RH  091%=      5-min Rain = 0
KBR1 260809Z 20004KT 18/17 A2996 RMK A01 T01800165  RH  091%=      5-min Rain = 0
KBR1 260810Z 20005KT 18/16 A2996 RMK A01 T01790164  RH  090%=      5-min Rain = 0
KBR1 260811Z 21004KT 18/16 A2996 RMK A01 T01780162  RH  090%=      5-min Rain = 0
KBR1 260812Z 21004KT 18/16 A2996 RMK A01 T01780162  RH  091%=      5-min Rain = 0
KBR1 260813Z 21004KT 18/16 A2996 RMK A01 T01770162  RH  091%=      5-min Rain = 0
KBR1 260814Z 21004KT 18/16 A2996 RMK A01 T01760161  RH  090%=      5-min Rain = 0
KBR1 260815Z 22003KT 18/16 A2996 RMK A01 T01750161  RH  091%=      5-min Rain = 0
KBR1 260816Z 22003KT 17/16 A2996 RMK A01 T01740161  RH  092%=      5-min Rain = 0
KBR1 260817Z 21003KT 17/16 A2996 RMK A01 T01740160  RH  092%=      5-min Rain = 0
KBR1 260818Z 22003KT 17/16 A2996 RMK A01 T01740161  RH  092%=      5-min Rain = 0
KBR1 260819Z 22003KT 17/16 A2996 RMK A01 T01730161  RH  093%=      5-min Rain = 0
KBR1 260820Z 22003KT 17/16 A2996 RMK A01 T01730162  RH  093%=      5-min Rain = 0
KBR1 260821Z 22003KT 17/16 A2996 RMK A01 T01730161  RH  093%=      5-min Rain = 0
KBR1 260822Z 22003KT 17/16 A2996 RMK A01 T01730162  RH  093%=      5-min Rain = 0
KBR1 260823Z 22003KT 17/16 A2996 RMK A01 T01730162  RH  093%=      5-min Rain = 0
KBR1 260824Z 22003KT 17/16 A2996 RMK A01 T01730162  RH  093%=      5-min Rain = 0
KBR1 260825Z 22004KT 17/16 A2996 RMK A01 T01720160  RH  092%=      5-min Rain = 0
KBR1 260826Z 21004KT 17/16 A2996 RMK A01 T01710159  RH  092%=      5-min Rain = 0
KBR1 260827Z 22004KT 17/16 A2996 RMK A01 T01710159  RH  093%=      5-min Rain = 0
KBR1 260828Z 22003KT 17/16 A2996 RMK A01 T01710159  RH  092%=      5-min Rain = 0
KBR1 260829Z 21004KT 17/16 A2997 RMK A01 T01710159  RH  093%=      5-min Rain = 0
KBR1 260830Z 21004KT 17/16 A2997 RMK A01 T01700158  RH  093%=      5-min Rain = 0
KBR1 260831Z 20004KT 17/16 A2997 RMK A01 T01700159  RH  093%=      5-min Rain = 0
KBR1 260832Z 20005KT 17/16 A2997 RMK A01 T01700160  RH  094%=      5-min Rain = 0
KBR1 260833Z 19005KT 17/16 A2997 RMK A01 T01700160  RH  093%=      5-min Rain = 0
KBR1 260834Z 19005KT 17/16 A2997 RMK A01 T01710161  RH  093%=      5-min Rain = 0
KBR1 260835Z 19006KT 17/16 A2997 RMK A01 T01720161  RH  093%=      5-min Rain = 0
KBR1 260836Z 19006KT 17/16 A2997 RMK A01 T01720161  RH  093%=      5-min Rain = 0
KBR1 260837Z 19006KT 17/16 A2997 RMK A01 T01720160  RH  093%=      5-min Rain = 0
KBR1 260838Z 20007KT 17/16 A2997 RMK A01 T01720160  RH  093%=      5-min Rain = 0
KBR1 260839Z 19007KT 17/16 A2997 RMK A01 T01720160  RH  093%=      5-min Rain = 0
KBR1 260840Z 19008KT 17/16 A2997 RMK A01 T01720160  RH  092%=      5-min Rain = 0
KBR1 260841Z 19008KT 17/16 A2997 RMK A01 T01720160  RH  092%=      5-min Rain = 0
KBR1 260842Z 18008KT 17/16 A2997 RMK A01 T01720160  RH  092%=      5-min Rain = 0
KBR1 260843Z 18008KT 17/16 A2997 RMK A01 T01720160  RH  092%=      5-min Rain = 0
KBR1 260844Z 18008KT 17/16 A2997 RMK A01 T01720160  RH  093%=      5-min Rain = 0
KBR1 260845Z 18008KT 17/16 A2997 RMK A01 T01730161  RH  093%=      5-min Rain = 0
KBR1 260846Z 18008KT 17/16 A2997 RMK A01 T01730162  RH  093%=      5-min Rain = 0
KBR1 260847Z 18008KT 17/16 A2997 RMK A01 T01730161  RH  092%=      5-min Rain = 0
KBR1 260848Z 18008KT 17/16 A2997 RMK A01 T01740161  RH  092%=      5-min Rain = 0
KBR1 260849Z 19008KT 17/16 A2997 RMK A01 T01740162  RH  092%=      5-min Rain = 0
KBR1 260850Z 19008KT 18/16 A2997 RMK A01 T01750162  RH  092%=      5-min Rain = 0
KBR1 260851Z 19008KT 18/16 A2997 RMK A01 T01750162  RH  092%=      5-min Rain = 0
KBR1 260852Z 19007KT 18/16 A2997 RMK A01 T01750161  RH  092%=      5-min Rain = 0
KBR1 260853Z 18007KT 18/16 A2997 RMK A01 T01750161  RH  092%=      5-min Rain = 0
KBR1 260854Z 18007KT 18/16 A2997 RMK A01 T01750162  RH  092%=      5-min Rain = 0
KBR1 260855Z 18007KT 18/16 A2997 RMK A01 T01750162  RH  092%=      5-min Rain = 0
KBR1 260856Z 18007KT 18/16 A2997 RMK A01 T01760162  RH  092%=      5-min Rain = 0
KBR1 260857Z 18007KT 18/16 A2997 RMK A01 T01760162  RH  091%=      5-min Rain = 0
KBR1 260858Z 18007KT 18/16 A2997 RMK A01 T01770162  RH  091%=      5-min Rain = 0
KBR1 260859Z 18006KT 18/16 A2997 RMK A01 T01760162  RH  091%=      5-min Rain = 0
KBR1 260900Z 18007KT 18/16 A2997 RMK A01 T01760162  RH  091%=      5-min Rain = 0
KBR1 260901Z 17007KT 18/16 A2997 RMK A01 T01760162  RH  091%=      5-min Rain = 0
KBR1 260902Z 17007KT 18/16 A2997 RMK A01 T01760162  RH  091%=      5-min Rain = 0
KBR1 260903Z 17007KT 18/16 A2997 RMK A01 T01760161  RH  091%=      5-min Rain = 0
KBR1 260904Z 17007KT 18/16 A2997 RMK A01 T01760161  RH  091%=      5-min Rain = 0
KBR1 260905Z 17007KT 18/16 A2997 RMK A01 T01750161  RH  091%=      5-min Rain = 0
KBR1 260906Z 18007KT 18/16 A2997 RMK A01 T01750161  RH  091%=      5-min Rain = 0
KBR1 260907Z 17007KT 18/16 A2997 RMK A01 T01750161  RH  091%=      5-min Rain = 0
KBR1 260908Z 17007KT 18/16 A2997 RMK A01 T01750160  RH  091%=      5-min Rain = 0
KBR1 260909Z 17007KT 17/16 A2997 RMK A01 T01740159  RH  091%=      5-min Rain = 0
KBR1 260910Z 17007KT 17/16 A2996 RMK A01 T01740159  RH  091%=      5-min Rain = 0
KBR1 260911Z 17007KT 17/16 A2997 RMK A01 T01740159  RH  091%=      5-min Rain = 0
KBR1 260912Z 17007KT 17/16 A2997 RMK A01 T01730159  RH  091%=      5-min Rain = 0
KBR1 260913Z 17008KT 17/16 A2997 RMK A01 T01730159  RH  091%=      5-min Rain = 0
KBR1 260914Z 18008KT 17/16 A2997 RMK A01 T01720158  RH  092%=      5-min Rain = 0
KBR1 260915Z 18008KT 17/16 A2997 RMK A01 T01720158  RH  092%=      5-min Rain = 0
KBR1 260916Z 18009KT 17/16 A2997 RMK A01 T01720159  RH  092%=      5-min Rain = 0
KBR1 260917Z 18009KT 17/16 A2997 RMK A01 T01720159  RH  092%=      5-min Rain = 0
KBR1 260918Z 19009KT 17/16 A2997 RMK A01 T01730160  RH  092%=      5-min Rain = 0
KBR1 260919Z 19009KT 17/16 A2997 RMK A01 T01740161  RH  092%=      5-min Rain = 0
KBR1 260920Z 19009KT 17/16 A2997 RMK A01 T01740160  RH  091%=      5-min Rain = 0
KBR1 260921Z 19009KT 17/16 A2997 RMK A01 T01740160  RH  091%=      5-min Rain = 0
KBR1 260922Z 19009KT 17/16 A2997 RMK A01 T01740160  RH  091%=      5-min Rain = 0
KBR1 260923Z 19009KT 17/16 A2997 RMK A01 T01740160  RH  091%=      5-min Rain = 0
KBR1 260924Z 19009KT 17/16 A2997 RMK A01 T01740160  RH  091%=      5-min Rain = 0
KBR1 260925Z 19009KT 17/16 A2997 RMK A01 T01740160  RH  091%=      5-min Rain = 0
KBR1 260926Z 18009KT 17/16 A2997 RMK A01 T01740160  RH  091%=      5-min Rain = 0
KBR1 260927Z 19009KT 17/16 A2997 RMK A01 T01740159  RH  091%=      5-min Rain = 0
KBR1 260928Z 19009KT 17/16 A2996 RMK A01 T01740159  RH  091%=      5-min Rain = 0
KBR1 260929Z 19008KT 17/16 A2996 RMK A01 T01740159  RH  091%=      5-min Rain = 0
KBR1 260930Z 19008KT 17/16 A2996 RMK A01 T01740160  RH  091%=      5-min Rain = 0
KBR1 260931Z 19008KT 17/16 A2997 RMK A01 T01740159  RH  091%=      5-min Rain = 0
KBR1 260932Z 19007KT 17/16 A2997 RMK A01 T01740159  RH  091%=      5-min Rain = 0
KBR1 260933Z 19007KT 17/16 A2997 RMK A01 T01740159  RH  091%=      5-min Rain = 0
KBR1 260934Z 19006KT 17/16 A2997 RMK A01 T01740159  RH  091%=      5-min Rain = 0
KBR1 260935Z 20006KT 17/16 A2997 RMK A01 T01730158  RH  091%=      5-min Rain = 0
KBR1 260936Z 20005KT 17/16 A2997 RMK A01 T01720157  RH  091%=      5-min Rain = 0
KBR1 260937Z 21004KT 17/16 A2997 RMK A01 T01710156  RH  091%=      5-min Rain = 0
KBR1 260938Z 23003KT 17/16 A2997 RMK A01 T01700155  RH  091%=      5-min Rain = 0
KBR1 260939Z 25003KT 17/15 A2997 RMK A01 T01680154  RH  091%=      5-min Rain = 0
KBR1 260940Z 23004KT 17/15 A2997 RMK A01 T01670153  RH  092%=      5-min Rain = 0
KBR1 260941Z 21005KT 17/15 A2997 RMK A01 T01660154  RH  093%=      5-min Rain = 0
KBR1 260942Z 20005KT 17/16 A2997 RMK A01 T01670156  RH  093%=      5-min Rain = 0
KBR1 260943Z 20005KT 17/16 A2997 RMK A01 T01670155  RH  093%=      5-min Rain = 0
KBR1 260944Z 20005KT 17/16 A2997 RMK A01 T01670155  RH  093%=      5-min Rain = 0
KBR1 260945Z 20005KT 17/16 A2997 RMK A01 T01670155  RH  092%=      5-min Rain = 0
KBR1 260946Z 20005KT 17/15 A2997 RMK A01 T01660153  RH  092%=      5-min Rain = 0
KBR1 260947Z 20005KT 16/15 A2997 RMK A01 T01640152  RH  092%=      5-min Rain = 0
KBR1 260948Z 20005KT 16/15 A2997 RMK A01 T01630151  RH  092%=      5-min Rain = 0
KBR1 260949Z 19006KT 16/15 A2997 RMK A01 T01620150  RH  093%=      5-min Rain = 0
KBR1 260950Z 19006KT 16/15 A2997 RMK A01 T01610150  RH  093%=      5-min Rain = 0
KBR1 260951Z 19006KT 16/15 A2997 RMK A01 T01600150  RH  094%=      5-min Rain = 0
KBR1 260952Z 19007KT 16/15 A2997 RMK A01 T01600151  RH  094%=      5-min Rain = 0
KBR1 260953Z 19007KT 16/15 A2997 RMK A01 T01600151  RH  094%=      5-min Rain = 0
KBR1 260954Z 19007KT 16/15 A2997 RMK A01 T01600151  RH  094%=      5-min Rain = 0
KBR1 260955Z 19008KT 16/15 A2997 RMK A01 T01610152  RH  094%=      5-min Rain = 0
KBR1 260956Z 19008KT 16/15 A2997 RMK A01 T01610152  RH  094%=      5-min Rain = 0
KBR1 260957Z 19008KT 16/15 A2997 RMK A01 T01620152  RH  094%=      5-min Rain = 0
KBR1 260958Z 19008KT 16/15 A2997 RMK A01 T01620153  RH  094%=      5-min Rain = 0
KBR1 260959Z 19008KT 16/15 A2997 RMK A01 T01620153  RH  094%=      5-min Rain = 0
KBR1 261000Z 19008KT 16/15 A2997 RMK A01 T01630154  RH  094%=      5-min Rain = 0
KBR1 261001Z 19008KT 16/15 A2997 RMK A01 T01640154  RH  094%=      5-min Rain = 0
KBR1 261002Z 19008KT 16/15 A2997 RMK A01 T01640154  RH  094%=      5-min Rain = 0
KBR1 261003Z 19008KT 16/16 A2997 RMK A01 T01640155  RH  094%=      5-min Rain = 0
KBR1 261004Z 19008KT 17/16 A2997 RMK A01 T01650155  RH  094%=      5-min Rain = 0
KBR1 261005Z 19008KT 17/16 A2997 RMK A01 T01650156  RH  094%=      5-min Rain = 0
KBR1 261006Z 19008KT 17/16 A2997 RMK A01 T01660157  RH  094%=      5-min Rain = 0
KBR1 261007Z 19008KT 17/16 A2997 RMK A01 T01670157  RH  094%=      5-min Rain = 0
KBR1 261008Z 19008KT 17/16 A2997 RMK A01 T01680158  RH  094%=      5-min Rain = 0
KBR1 261009Z 19008KT 17/16 A2997 RMK A01 T01690158  RH  093%=      5-min Rain = 0
KBR1 261010Z 19008KT 17/16 A2997 RMK A01 T01690158  RH  093%=      5-min Rain = 0
KBR1 261011Z 19008KT 17/16 A2997 RMK A01 T01700159  RH  093%=      5-min Rain = 0
KBR1 261012Z 19008KT 17/16 A2997 RMK A01 T01710159  RH  093%=      5-min Rain = 0
KBR1 261013Z 19008KT 17/16 A2997 RMK A01 T01710159  RH  092%=      5-min Rain = 0
KBR1 261014Z 19008KT 17/16 A2997 RMK A01 T01720159  RH  092%=      5-min Rain = 0
KBR1 261015Z 19008KT 17/16 A2997 RMK A01 T01720159  RH  092%=      5-min Rain = 0
KBR1 261016Z 19008KT 17/16 A2997 RMK A01 T01720159  RH  092%=      5-min Rain = 0
KBR1 261017Z 19007KT 17/16 A2997 RMK A01 T01720159  RH  092%=      5-min Rain = 0
KBR1 261018Z 20007KT 17/16 A2997 RMK A01 T01720159  RH  092%=      5-min Rain = 0
KBR1 261019Z 20007KT 17/16 A2997 RMK A01 T01730159  RH  092%=      5-min Rain = 0
KBR1 261020Z 20006KT 17/16 A2997 RMK A01 T01730159  RH  092%=      5-min Rain = 0
KBR1 261021Z 20005KT 17/16 A2997 RMK A01 T01720158  RH  091%=      5-min Rain = 0
KBR1 261022Z 22004KT 17/16 A2997 RMK A01 T01710157  RH  091%=      5-min Rain = 0
KBR1 261023Z 21004KT 17/16 A2997 RMK A01 T01700156  RH  092%=      5-min Rain = 0
KBR1 261024Z 20005KT 17/16 A2997 RMK A01 T01690156  RH  092%=      5-min Rain = 0
KBR1 261025Z 20005KT 17/16 A2997 RMK A01 T01680155  RH  092%=      5-min Rain = 0
KBR1 261026Z 20004KT 17/15 A2997 RMK A01 T01660154  RH  092%=      5-min Rain = 0
KBR1 261027Z 20004KT 17/15 A2997 RMK A01 T01650153  RH  092%=      5-min Rain = 0
KBR1 261028Z 20004KT 16/15 A2997 RMK A01 T01640152  RH  093%=      5-min Rain = 0
KBR1 261029Z 20004KT 16/15 A2997 RMK A01 T01630152  RH  093%=      5-min Rain = 0
KBR1 261030Z 20004KT 16/15 A2997 RMK A01 T01630152  RH  093%=      5-min Rain = 0
KBR1 261031Z 20005KT 16/15 A2997 RMK A01 T01630152  RH  094%=      5-min Rain = 0
KBR1 261032Z 20005KT 16/15 A2997 RMK A01 T01620153  RH  094%=      5-min Rain = 0
KBR1 261033Z 20005KT 16/15 A2997 RMK A01 T01620153  RH  094%=      5-min Rain = 0
KBR1 261034Z 20005KT 16/15 A2997 RMK A01 T01620153  RH  094%=      5-min Rain = 0
KBR1 261035Z 20005KT 16/15 A2997 RMK A01 T01620152  RH  094%=      5-min Rain = 0
KBR1 261036Z 20005KT 16/15 A2997 RMK A01 T01610151  RH  094%=      5-min Rain = 0
KBR1 261037Z 20005KT 16/15 A2997 RMK A01 T01600151  RH  094%=      5-min Rain = 0
KBR1 261038Z 20006KT 16/15 A2997 RMK A01 T01590150  RH  094%=      5-min Rain = 0
KBR1 261039Z 20006KT 16/15 A2997 RMK A01 T01590150  RH  095%=      5-min Rain = 0
KBR1 261040Z 20006KT 16/15 A2997 RMK A01 T01590151  RH  095%=      5-min Rain = 0
KBR1 261041Z 20006KT 16/15 A2997 RMK A01 T01590151  RH  095%=      5-min Rain = 0
KBR1 261042Z 20006KT 16/15 A2997 RMK A01 T01590151  RH  095%=      5-min Rain = 0
KBR1 261043Z 20006KT 16/15 A2997 RMK A01 T01580150  RH  095%=      5-min Rain = 0
KBR1 261044Z 20006KT 16/15 A2997 RMK A01 T01580150  RH  095%=      5-min Rain = 0
KBR1 261045Z 20006KT 16/15 A2997 RMK A01 T01580150  RH  095%=      5-min Rain = 0
KBR1 261046Z 20006KT 16/15 A2997 RMK A01 T01580150  RH  095%=      5-min Rain = 0
KBR1 261047Z 20006KT 16/15 A2997 RMK A01 T01590151  RH  095%=      5-min Rain = 0
KBR1 261048Z 20006KT 16/15 A2997 RMK A01 T01600152  RH  095%=      5-min Rain = 0
KBR1 261049Z 20006KT 16/15 A2997 RMK A01 T01600153  RH  095%=      5-min Rain = 0
KBR1 261050Z 20006KT 16/15 A2997 RMK A01 T01610153  RH  095%=      5-min Rain = 0
KBR1 261051Z 20005KT 16/15 A2997 RMK A01 T01610153  RH  095%=      5-min Rain = 0
KBR1 261052Z 20005KT 16/15 A2997 RMK A01 T01610154  RH  095%=      5-min Rain = 0
KBR1 261053Z 20005KT 16/15 A2997 RMK A01 T01610153  RH  095%=      5-min Rain = 0
KBR1 261054Z 19005KT 16/15 A2997 RMK A01 T01610153  RH  095%=      5-min Rain = 0
KBR1 261055Z 19004KT 16/15 A2997 RMK A01 T01610153  RH  095%=      5-min Rain = 0
KBR1 261056Z 19004KT 16/15 A2997 RMK A01 T01610153  RH  095%=      5-min Rain = 0
KBR1 261057Z 18004KT 16/15 A2997 RMK A01 T01620153  RH  095%=      5-min Rain = 0
KBR1 261058Z 18005KT 16/15 A2997 RMK A01 T01610153  RH  095%=      5-min Rain = 0
KBR1 261059Z 18006KT 16/15 A2997 RMK A01 T01620154  RH  095%=      5-min Rain = 0
KBR1 261100Z 18006KT 16/16 A2997 RMK A01 T01630155  RH  095%=      5-min Rain = 0
KBR1 261101Z 18004KT 16/16 A2997 RMK A01 T01630155  RH  095%=      5-min Rain = 0
KBR1 261102Z 18004KT 16/15 A2997 RMK A01 T01640154  RH  094%=      5-min Rain = 0
KBR1 261103Z 18004KT 16/15 A2997 RMK A01 T01640154  RH  094%=      5-min Rain = 0
KBR1 261104Z 18005KT 16/15 A2997 RMK A01 T01640154  RH  094%=      5-min Rain = 0
KBR1 261105Z 18006KT 16/16 A2997 RMK A01 T01640155  RH  094%=      5-min Rain = 0
KBR1 261106Z 18007KT 17/16 A2997 RMK A01 T01660157  RH  095%=      5-min Rain = 0
KBR1 261107Z 18008KT 17/16 A2997 RMK A01 T01680159  RH  094%=      5-min Rain = 0
KBR1 261108Z 17008KT 17/16 A2997 RMK A01 T01700160  RH  094%=      5-min Rain = 0
KBR1 261109Z 17008KT 17/16 A2997 RMK A01 T01710160  RH  093%=      5-min Rain = 0
KBR1 261110Z 17008KT 17/16 A2997 RMK A01 T01720159  RH  092%=      5-min Rain = 0
KBR1 261111Z 17008KT 17/16 A2997 RMK A01 T01720159  RH  092%=      5-min Rain = 0
KBR1 261112Z 16008KT 17/16 A2997 RMK A01 T01720159  RH  092%=      5-min Rain = 0
KBR1 261113Z 16008KT 17/16 A2997 RMK A01 T01720159  RH  092%=      5-min Rain = 0
KBR1 261114Z 16008KT 17/16 A2997 RMK A01 T01710158  RH  092%=      5-min Rain = 0
KBR1 261115Z 16008KT 17/16 A2997 RMK A01 T01710157  RH  092%=      5-min Rain = 0
KBR1 261116Z 16008KT 17/16 A2997 RMK A01 T01700157  RH  092%=      5-min Rain = 0
KBR1 261117Z 15008KT 17/16 A2997 RMK A01 T01690156  RH  092%=      5-min Rain = 0
KBR1 261118Z 15008KT 17/16 A2997 RMK A01 T01690156  RH  092%=      5-min Rain = 0
KBR1 261119Z 14007KT 17/16 A2997 RMK A01 T01680155  RH  092%=      5-min Rain = 0
KBR1 261120Z 14007KT 17/15 A2997 RMK A01 T01660154  RH  093%=      5-min Rain = 0
KBR1 261121Z 14007KT 17/15 A2997 RMK A01 T01650154  RH  093%=      5-min Rain = 0
KBR1 261122Z 14007KT 17/15 A2997 RMK A01 T01650154  RH  093%=      5-min Rain = 0
KBR1 261123Z 13007KT 16/15 A2997 RMK A01 T01640154  RH  093%=      5-min Rain = 0
KBR1 261124Z 12007KT 16/15 A2997 RMK A01 T01630153  RH  094%=      5-min Rain = 0
KBR1 261125Z 12007KT 16/15 A2997 RMK A01 T01620152  RH  094%=      5-min Rain = 0
KBR1 261126Z 12007KT 16/15 A2998 RMK A01 T01620152  RH  094%=      5-min Rain = 0
KBR1 261127Z 12008KT 16/15 A2998 RMK A01 T01610152  RH  094%=      5-min Rain = 0
KBR1 261128Z 11008KT 16/15 A2998 RMK A01 T01610153  RH  094%=      5-min Rain = 0
KBR1 261129Z 12007KT 16/15 A2998 RMK A01 T01610153  RH  095%=      5-min Rain = 0
KBR1 261130Z 12008KT 16/15 A2998 RMK A01 T01620153  RH  095%=      5-min Rain = 0
KBR1 261131Z 11008KT 16/15 A2998 RMK A01 T01630154  RH  095%=      5-min Rain = 0
KBR1 261132Z 11008KT 16/15 A2998 RMK A01 T01630154  RH  095%=      5-min Rain = 0
KBR1 261133Z 11008KT 16/15 A2998 RMK A01 T01630154  RH  094%=      5-min Rain = 0
KBR1 261134Z 11008KT 16/15 A2998 RMK A01 T01620153  RH  094%=      5-min Rain = 0
KBR1 261135Z 10008KT 16/15 A2998 RMK A01 T01610153  RH  094%=      5-min Rain = 0
KBR1 261136Z 10008KT 16/15 A2998 RMK A01 T01610152  RH  094%=      5-min Rain = 0
KBR1 261137Z 10008KT 16/15 A2998 RMK A01 T01590151  RH  095%=      5-min Rain = 0
KBR1 261138Z 10009KT 16/15 A2998 RMK A01 T01580150  RH  095%=      5-min Rain = 0
KBR1 261139Z 10009KT 16/15 A2998 RMK A01 T01580150  RH  095%=      5-min Rain = 0
KBR1 261140Z 11009KT 16/15 A2998 RMK A01 T01570150  RH  095%=      5-min Rain = 0
KBR1 261141Z 11009KT 16/15 A2998 RMK A01 T01570150  RH  096%=      5-min Rain = 0
KBR1 261142Z 11009KT 16/15 A2998 RMK A01 T01570151  RH  096%=      5-min Rain = 0
KBR1 261143Z 11008KT 16/15 A2998 RMK A01 T01580151  RH  096%=      5-min Rain = 0
KBR1 261144Z 11008KT 16/15 A2998 RMK A01 T01580151  RH  096%=      5-min Rain = 0
KBR1 261145Z 12009KT 16/15 A2998 RMK A01 T01580152  RH  096%=      5-min Rain = 0
KBR1 261146Z 12009KT 16/15 A2999 RMK A01 T01590152  RH  096%=      5-min Rain = 0
KBR1 261147Z 12009KT 16/15 A2998 RMK A01 T01590152  RH  096%=      5-min Rain = 0
KBR1 261148Z 12009KT 16/15 A2998 RMK A01 T01590152  RH  096%=      5-min Rain = 0
KBR1 261149Z 12009KT 16/15 A2998 RMK A01 T01600153  RH  096%=      5-min Rain = 0
KBR1 261150Z 12009KT 16/15 A2998 RMK A01 T01600153  RH  095%=      5-min Rain = 0
KBR1 261151Z 12008KT 16/15 A2999 RMK A01 T01610153  RH  095%=      5-min Rain = 0
KBR1 261152Z 12008KT 16/15 A2999 RMK A01 T01610153  RH  095%=      5-min Rain = 0
KBR1 261153Z 12009KT 16/15 A2999 RMK A01 T01610153  RH  095%=      5-min Rain = 0
KBR1 261154Z 12009KT 16/15 A2999 RMK A01 T01620154  RH  095%=      5-min Rain = 0
KBR1 261155Z 12009KT 16/15 A2999 RMK A01 T01620154  RH  095%=      5-min Rain = 0
KBR1 261156Z 12009KT 16/15 A2999 RMK A01 T01620154  RH  095%=      5-min Rain = 0
KBR1 261157Z 12009KT 16/16 A2999 RMK A01 T01630155  RH  095%=      5-min Rain = 0
KBR1 261158Z 12009KT 16/16 A2999 RMK A01 T01630155  RH  095%=      5-min Rain = 0
KBR1 261159Z 13009KT 16/16 A2999 RMK A01 T01640155  RH  095%=      5-min Rain = 0
KBR1 261200Z 13008KT 16/16 A2999 RMK A01 T01640155  RH  094%=      5-min Rain = 0
KBR1 261201Z 13008KT 16/16 A2999 RMK A01 T01640155  RH  094%=      5-min Rain = 0
KBR1 261202Z 12008KT 16/15 A2999 RMK A01 T01640154  RH  094%=      5-min Rain = 0
KBR1 261203Z 12007KT 16/16 A2999 RMK A01 T01640155  RH  094%=      5-min Rain = 0
KBR1 261204Z 13007KT 16/16 A2999 RMK A01 T01640155  RH  094%=      5-min Rain = 0
KBR1 261205Z 13007KT 16/15 A2999 RMK A01 T01640154  RH  094%=      5-min Rain = 0
KBR1 261206Z 12007KT 16/15 A2999 RMK A01 T01640154  RH  094%=      5-min Rain = 0
KBR1 261207Z 12007KT 16/16 A2999 RMK A01 T01640155  RH  094%=      5-min Rain = 0
KBR1 261208Z 12007KT 16/15 A2999 RMK A01 T01640154  RH  094%=      5-min Rain = 0
KBR1 261209Z 12007KT 16/15 A2999 RMK A01 T01640154  RH  094%=      5-min Rain = 0
KBR1 261210Z 12007KT 16/15 A2999 RMK A01 T01640154  RH  094%=      5-min Rain = 0
KBR1 261211Z 12007KT 16/15 A2999 RMK A01 T01640154  RH  094%=      5-min Rain = 0
KBR1 261212Z 13006KT 16/15 A2999 RMK A01 T01640154  RH  094%=      5-min Rain = 0
KBR1 261213Z 13006KT 16/15 A2999 RMK A01 T01640154  RH  094%=      5-min Rain = 0
KBR1 261214Z 13006KT 16/15 A2999 RMK A01 T01640154  RH  094%=      5-min Rain = 0
KBR1 261215Z 12006KT 17/16 A2999 RMK A01 T01650155  RH  094%=      5-min Rain = 0
KBR1 261216Z 13007KT 16/16 A2999 RMK A01 T01640155  RH  094%=      5-min Rain = 0
KBR1 261217Z 12007KT 16/16 A2998 RMK A01 T01640155  RH  094%=      5-min Rain = 0
KBR1 261218Z 12007KT 17/16 A2998 RMK A01 T01650155  RH  094%=      5-min Rain = 0
KBR1 261219Z 12008KT 17/16 A2998 RMK A01 T01650155  RH  094%=      5-min Rain = 0
KBR1 261220Z 12008KT 17/16 A2998 RMK A01 T01650155  RH  094%=      5-min Rain = 0
KBR1 261221Z 11008KT 17/16 A2999 RMK A01 T01650155  RH  094%=      5-min Rain = 0
KBR1 261222Z 12008KT 17/16 A2999 RMK A01 T01650155  RH  094%=      5-min Rain = 0
KBR1 261223Z 12008KT 17/16 A2999 RMK A01 T01650155  RH  094%=      5-min Rain = 0
KBR1 261224Z 12008KT 17/16 A2998 RMK A01 T01650156  RH  094%=      5-min Rain = 0
KBR1 261225Z 12009KT 17/16 A2999 RMK A01 T01660156  RH  094%=      5-min Rain = 0
KBR1 261226Z 12008KT 17/16 A2999 RMK A01 T01660156  RH  094%=      5-min Rain = 0
KBR1 261227Z 12008KT 17/16 A2999 RMK A01 T01660156  RH  093%=      5-min Rain = 0
KBR1 261228Z 12007KT 17/16 A2999 RMK A01 T01670156  RH  093%=      5-min Rain = 0
KBR1 261229Z 12007KT 17/16 A2999 RMK A01 T01670156  RH  093%=      5-min Rain = 0
KBR1 261230Z 12006KT 17/16 A2999 RMK A01 T01670156  RH  093%=      5-min Rain = 0
KBR1 261231Z 11006KT 17/16 A2999 RMK A01 T01680157  RH  093%=      5-min Rain = 0
KBR1 261232Z 11007KT 17/16 A2999 RMK A01 T01680157  RH  093%=      5-min Rain = 0
KBR1 261233Z 12007KT 17/16 A2999 RMK A01 T01690157  RH  093%=      5-min Rain = 0
KBR1 261234Z 12007KT 17/16 A2999 RMK A01 T01690157  RH  093%=      5-min Rain = 0
KBR1 261235Z 12007KT 17/16 A2999 RMK A01 T01690158  RH  093%=      5-min Rain = 0
KBR1 261236Z 12007KT 17/16 A2999 RMK A01 T01690158  RH  093%=      5-min Rain = 0
KBR1 261237Z 12007KT 17/16 A2999 RMK A01 T01700158  RH  093%=      5-min Rain = 0
KBR1 261238Z 12006KT 17/16 A2999 RMK A01 T01700158  RH  092%=      5-min Rain = 0
KBR1 261239Z 12006KT 17/16 A30 RMK A01 T01710158  RH  092%=      5-min Rain = 0
KBR1 261240Z 12006KT 17/16 A30 RMK A01 T01710158  RH  092%=      5-min Rain = 0
KBR1 261241Z 12006KT 17/16 A2999 RMK A01 T01720158  RH  092%=      5-min Rain = 0
KBR1 261242Z 12005KT 17/16 A2999 RMK A01 T01720158  RH  091%=      5-min Rain = 0
KBR1 261243Z 12006KT 17/16 A2999 RMK A01 T01730159  RH  091%=      5-min Rain = 0
KBR1 261244Z 12006KT 17/16 A2999 RMK A01 T01740158  RH  091%=      5-min Rain = 0
KBR1 261245Z 12006KT 17/16 A2999 RMK A01 T01740159  RH  091%=      5-min Rain = 0
KBR1 261246Z 12007KT 18/16 A2999 RMK A01 T01750159  RH  091%=      5-min Rain = 0
KBR1 261247Z 13006KT 18/16 A30 RMK A01 T01750160  RH  091%=      5-min Rain = 0
KBR1 261248Z 12006KT 18/16 A30 RMK A01 T01750160  RH  091%=      5-min Rain = 0
KBR1 261249Z 12007KT 18/16 A30 RMK A01 T01750160  RH  091%=      5-min Rain = 0
KBR1 261250Z 12007KT 18/16 A30 RMK A01 T01750160  RH  090%=      5-min Rain = 0
KBR1 261251Z 12007KT 18/16 A30 RMK A01 T01750160  RH  090%=      5-min Rain = 0
KBR1 261252Z 12007KT 18/16 A30 RMK A01 T01760160  RH  091%=      5-min Rain = 0
KBR1 261253Z 12008KT 18/16 A30 RMK A01 T01760161  RH  091%=      5-min Rain = 0
KBR1 261254Z 12007KT 18/16 A30 RMK A01 T01760161  RH  091%=      5-min Rain = 0
KBR1 261255Z 12007KT 18/16 A30 RMK A01 T01770161  RH  091%=      5-min Rain = 0
KBR1 261256Z 13008KT 18/16 A30 RMK A01 T01770161  RH  090%=      5-min Rain = 0
KBR1 261257Z 12007KT 18/16 A30 RMK A01 T01770161  RH  090%=      5-min Rain = 0
KBR1 261258Z 12008KT 18/16 A30 RMK A01 T01780162  RH  090%=      5-min Rain = 0
KBR1 261259Z 12008KT 18/16 A30 RMK A01 T01780161  RH  090%=      5-min Rain = 0
KBR1 261300Z 12008KT 18/16 A30 RMK A01 T01780161  RH  090%=      5-min Rain = 0
KBR1 261301Z 13008KT 18/16 A30 RMK A01 T01780162  RH  090%=      5-min Rain = 0
KBR1 261302Z 13008KT 18/16 A30 RMK A01 T01790162  RH  090%=      5-min Rain = 0
KBR1 261303Z 13008KT 18/16 A30 RMK A01 T01790162  RH  089%=      5-min Rain = 0
KBR1 261304Z 13007KT 18/16 A30 RMK A01 T01790162  RH  089%=      5-min Rain = 0
KBR1 261305Z 13009KT 18/16 A30 RMK A01 T01800163  RH  090%=      5-min Rain = 0
KBR1 261306Z 12008KT 18/16 A30 RMK A01 T01800161  RH  089%=      5-min Rain = 0
KBR1 261307Z 13008KT 18/16 A30 RMK A01 T01800161  RH  089%=      5-min Rain = 0
KBR1 261308Z 14006KT 18/16 A30 RMK A01 T01800162  RH  089%=      5-min Rain = 0
KBR1 261309Z 13007KT 18/16 A30 RMK A01 T01810164  RH  090%=      5-min Rain = 0
KBR1 261310Z 13007KT 18/16 A30 RMK A01 T01810164  RH  089%=      5-min Rain = 0
KBR1 261311Z 14008KT 18/16 A30 RMK A01 T01820164  RH  089%=      5-min Rain = 0
KBR1 261312Z 14008KT 18/16 A30 RMK A01 T01820163  RH  088%=      5-min Rain = 0
KBR1 261313Z 14008KT 18/16 A30 RMK A01 T01830163  RH  089%=      5-min Rain = 0
KBR1 261314Z 13009KT 18/16 A30 RMK A01 T01830163  RH  088%=      5-min Rain = 0
KBR1 261315Z 14008KT 18/16 A30 RMK A01 T01830163  RH  088%=      5-min Rain = 0
KBR1 261316Z 14007KT 18/16 A30 RMK A01 T01830163  RH  088%=      5-min Rain = 0
KBR1 261317Z 14008KT 18/16 A30 RMK A01 T01840163  RH  088%=      5-min Rain = 0
KBR1 261318Z 14008KT 18/16 A30 RMK A01 T01840163  RH  088%=      5-min Rain = 0
KBR1 261319Z 14007KT 19/16 A3001 RMK A01 T01850164  RH  088%=      5-min Rain = 0
KBR1 261320Z 15007KT 19/17 A3001 RMK A01 T01860166  RH  088%=      5-min Rain = 0
KBR1 261321Z 14007KT 19/17 A3001 RMK A01 T01870166  RH  087%=      5-min Rain = 0
KBR1 261322Z 14009KT 19/17 A30 RMK A01 T01880165  RH  087%=      5-min Rain = 0
KBR1 261323Z 15010KT 19/16 A30 RMK A01 T01880164  RH  086%=      5-min Rain = 0
KBR1 261324Z 15010KT 19/16 A3001 RMK A01 T01870164  RH  086%=      5-min Rain = 0
KBR1 261325Z 15010KT 19/16 A3001 RMK A01 T01870164  RH  086%=      5-min Rain = 0
KBR1 261326Z 15009KT 19/17 A3001 RMK A01 T01870166  RH  087%=      5-min Rain = 0
KBR1 261327Z 15010KT 19/16 A3001 RMK A01 T01870164  RH  086%=      5-min Rain = 0
KBR1 261328Z 15009KT 19/17 A3001 RMK A01 T01870165  RH  087%=      5-min Rain = 0
KBR1 261329Z 15009KT 19/17 A3001 RMK A01 T01870165  RH  087%=      5-min Rain = 0
KBR1 261330Z 15008KT 19/17 A3001 RMK A01 T01870166  RH  087%=      5-min Rain = 0
KBR1 261331Z 14009KT 19/17 A3001 RMK A01 T01870166  RH  087%=      5-min Rain = 0
KBR1 261332Z 14009KT 19/17 A3001 RMK A01 T01870166  RH  087%=      5-min Rain = 0
KBR1 261333Z 15010KT 19/16 A3001 RMK A01 T01860164  RH  087%=      5-min Rain = 0
KBR1 261334Z 15009KT 19/16 A3001 RMK A01 T01860164  RH  087%=      5-min Rain = 0
KBR1 261335Z 15008KT 19/17 A3001 RMK A01 T01860165  RH  088%=      5-min Rain = 0
KBR1 261336Z 15007KT 19/17 A3001 RMK A01 T01860166  RH  088%=      5-min Rain = 0
KBR1 261337Z 15010KT 19/17 A3001 RMK A01 T01860166  RH  088%=      5-min Rain = 0
KBR1 261338Z 15010KT 19/16 A3001 RMK A01 T01850164  RH  087%=      5-min Rain = 0
KBR1 261339Z 14009KT 19/16 A3001 RMK A01 T01850164  RH  088%=      5-min Rain = 0
KBR1 261340Z 14007KT 19/17 A3001 RMK A01 T01850165  RH  088%=      5-min Rain = 0
KBR1 261341Z 14008KT 19/17 A3001 RMK A01 T01850165  RH  088%=      5-min Rain = 0
KBR1 261342Z 15008KT 19/17 A3001 RMK A01 T01860165  RH  088%=      5-min Rain = 0
KBR1 261343Z 15008KT 19/17 A3001 RMK A01 T01860165  RH  087%=      5-min Rain = 0
KBR1 261344Z 15008KT 19/17 A3001 RMK A01 T01860166  RH  088%=      5-min Rain = 0
KBR1 261345Z 15008KT 19/17 A3001 RMK A01 T01860166  RH  088%=      5-min Rain = 0
KBR1 261346Z 15009KT 19/17 A3001 RMK A01 T01870167  RH  088%=      5-min Rain = 0
KBR1 261347Z 15009KT 19/17 A3001 RMK A01 T01870166  RH  088%=      5-min Rain = 0
KBR1 261348Z 15010KT 19/17 A3001 RMK A01 T01870165  RH  087%=      5-min Rain = 0
KBR1 261349Z 15009KT 19/16 A3001 RMK A01 T01870164  RH  087%=      5-min Rain = 0
KBR1 261350Z 15009KT 19/17 A3001 RMK A01 T01870166  RH  087%=      5-min Rain = 0
KBR1 261351Z 15011KT 19/16 A3001 RMK A01 T01870164  RH  087%=      5-min Rain = 0
KBR1 261352Z 15009KT 19/16 A30 RMK A01 T01870164  RH  087%=      5-min Rain = 0
KBR1 261353Z 14009KT 19/17 A3001 RMK A01 T01870165  RH  087%=      5-min Rain = 0
KBR1 261354Z 15008KT 19/17 A3001 RMK A01 T01870166  RH  087%=      5-min Rain = 0
KBR1 261355Z 15008KT 19/17 A3001 RMK A01 T01870166  RH  087%=      5-min Rain = 0
KBR1 261356Z 15009KT 19/17 A3001 RMK A01 T01880166  RH  087%=      5-min Rain = 0
KBR1 261357Z 15007KT 19/17 A3001 RMK A01 T01890167  RH  087%=      5-min Rain = 0
KBR1 261358Z 15009KT 19/17 A3001 RMK A01 T01890167  RH  087%=      5-min Rain = 0
KBR1 261359Z 14009KT 19/17 A3001 RMK A01 T01890167  RH  087%=      5-min Rain = 0
KBR1 261400Z 14009KT 19/17 A3001 RMK A01 T01890166  RH  086%=      5-min Rain = 0
KBR1 261401Z 14008KT 19/17 A3001 RMK A01 T01890166  RH  087%=      5-min Rain = 0
KBR1 261402Z 14009KT 19/17 A3001 RMK A01 T01880166  RH  086%=      5-min Rain = 0
KBR1 261403Z 14010KT 19/17 A3001 RMK A01 T01880165  RH  086%=      5-min Rain = 0
KBR1 261404Z 14010KT 19/17 A3001 RMK A01 T01880165  RH  086%=      5-min Rain = 0
KBR1 261405Z 14009KT 19/17 A3001 RMK A01 T01880165  RH  087%=      5-min Rain = 0
KBR1 261406Z 15009KT 19/17 A3001 RMK A01 T01880166  RH  087%=      5-min Rain = 0
KBR1 261407Z 15009KT 19/17 A3001 RMK A01 T01880166  RH  087%=      5-min Rain = 0
KBR1 261408Z 14008KT 19/17 A3001 RMK A01 T01890166  RH  086%=      5-min Rain = 0
KBR1 261409Z 14009KT 19/17 A3001 RMK A01 T01900167  RH  086%=      5-min Rain = 0
KBR1 261410Z 14009KT 19/17 A3001 RMK A01 T01910167  RH  086%=      5-min Rain = 0
KBR1 261411Z 14010KT 19/17 A3001 RMK A01 T01910166  RH  086%=      5-min Rain = 0
KBR1 261412Z 15008KT 19/17 A3001 RMK A01 T01910166  RH  085%=      5-min Rain = 0
KBR1 261413Z 15009KT 19/17 A3001 RMK A01 T01910167  RH  086%=      5-min Rain = 0
KBR1 261414Z 14010KT 19/17 A3001 RMK A01 T01910166  RH  085%=      5-min Rain = 0
KBR1 261415Z 15010KT 19/17 A3001 RMK A01 T01910166  RH  085%=      5-min Rain = 0
KBR1 261416Z 15009KT 19/17 A3001 RMK A01 T01920167  RH  085%=      5-min Rain = 0
KBR1 261417Z 15010KT 19/17 A3001 RMK A01 T01920166  RH  085%=      5-min Rain = 0
KBR1 261418Z 15007KT 19/17 A3001 RMK A01 T01920166  RH  085%=      5-min Rain = 0
KBR1 261419Z 15008KT 19/17 A3001 RMK A01 T01920167  RH  085%=      5-min Rain = 0
KBR1 261420Z 14010KT 19/17 A3001 RMK A01 T01920166  RH  085%=      5-min Rain = 0
KBR1 261421Z 15009KT 19/17 A3001 RMK A01 T01920165  RH  084%=      5-min Rain = 0
KBR1 261422Z 14009KT 19/17 A3001 RMK A01 T01910166  RH  085%=      5-min Rain = 0
KBR1 261423Z 15007KT 19/17 A3001 RMK A01 T01910166  RH  085%=      5-min Rain = 0
KBR1 261424Z 14010KT 19/17 A3001 RMK A01 T01920167  RH  085%=      5-min Rain = 0
KBR1 261425Z 15009KT 19/17 A3001 RMK A01 T01930166  RH  085%=      5-min Rain = 0
KBR1 261426Z 15007KT 19/17 A3001 RMK A01 T01940167  RH  084%=      5-min Rain = 0
KBR1 261427Z 14008KT 20/17 A3001 RMK A01 T01950168  RH  085%=      5-min Rain = 0
KBR1 261428Z 15009KT 20/17 A3001 RMK A01 T01960168  RH  084%=      5-min Rain = 0
KBR1 261429Z 15010KT 20/17 A3001 RMK A01 T01970167  RH  083%=      5-min Rain = 0
KBR1 261430Z 15010KT 20/17 A3001 RMK A01 T01970168  RH  083%=      5-min Rain = 0
KBR1 261431Z 14009KT 20/17 A3001 RMK A01 T01970167  RH  083%=      5-min Rain = 0
KBR1 261432Z 14009KT 20/17 A3001 RMK A01 T01970168  RH  083%=      5-min Rain = 0
KBR1 261433Z 14009KT 20/17 A3001 RMK A01 T01980168  RH  083%=      5-min Rain = 0
KBR1 261434Z 15009KT 20/17 A3001 RMK A01 T01990169  RH  083%=      5-min Rain = 0
KBR1 261435Z 15011KT 20/17 A3001 RMK A01 T02000169  RH  082%=      5-min Rain = 0
KBR1 261436Z 15011KT 20/17 A3001 RMK A01 T02000167  RH  081%=      5-min Rain = 0
KBR1 261437Z 15010KT 20/17 A3001 RMK A01 T01990168  RH  082%=      5-min Rain = 0
KBR1 261438Z 14009KT 20/17 A3001 RMK A01 T02000168  RH  082%=      5-min Rain = 0
KBR1 261439Z 14009KT 20/17 A3001 RMK A01 T02010168  RH  082%=      5-min Rain = 0
KBR1 261440Z 14010KT 20/17 A3001 RMK A01 T02020170  RH  082%=      5-min Rain = 0
KBR1 261441Z 15012KT 20/17 A3001 RMK A01 T02030170  RH  081%=      5-min Rain = 0
KBR1 261442Z 15012KT 20/17 A3001 RMK A01 T02040168  RH  080%=      5-min Rain = 0
KBR1 261443Z 15011KT 20/17 A3001 RMK A01 T02040169  RH  080%=      5-min Rain = 0
KBR1 261444Z 15011KT 20/17 A3001 RMK A01 T02040168  RH  080%=      5-min Rain = 0
KBR1 261445Z 15010KT 21/17 A3001 RMK A01 T02050169  RH  080%=      5-min Rain = 0
KBR1 261446Z 14011KT 21/17 A3001 RMK A01 T02050170  RH  080%=      5-min Rain = 0
KBR1 261447Z 14009KT 20/17 A3001 RMK A01 T02040170  RH  081%=      5-min Rain = 0
KBR1 261448Z 16010KT 20/17 A3001 RMK A01 T02040169  RH  080%=      5-min Rain = 0
KBR1 261449Z 15011KT 20/17 A3001 RMK A01 T02040169  RH  080%=      5-min Rain = 0
KBR1 261450Z 15013KT 20/17 A3001 RMK A01 T02040168  RH  080%=      5-min Rain = 0
KBR1 261451Z 15011KT 20/17 A3001 RMK A01 T02040168  RH  080%=      5-min Rain = 0
KBR1 261452Z 15010KT 20/17 A3001 RMK A01 T02040169  RH  080%=      5-min Rain = 0
KBR1 261453Z 15011KT 20/17 A3001 RMK A01 T02040169  RH  081%=      5-min Rain = 0
KBR1 261454Z 14009KT 21/17 A3001 RMK A01 T02050169  RH  080%=      5-min Rain = 0
KBR1 261455Z 14010KT 21/17 A3001 RMK A01 T02050169  RH  080%=      5-min Rain = 0
KBR1 261456Z 15010KT 21/17 A30 RMK A01 T02050169  RH  080%=      5-min Rain = 0
KBR1 261457Z 15011KT 21/17 A3001 RMK A01 T02060169  RH  079%=      5-min Rain = 0
KBR1 261458Z 14010KT 21/17 A3001 RMK A01 T02070171  RH  079%=      5-min Rain = 0
KBR1 261459Z 14011KT 21/17 A3001 RMK A01 T02100171  RH  079%=      5-min Rain = 0
KBR1 261500Z 15010KT 21/17 A3001 RMK A01 T02120172  RH  078%=      5-min Rain = 0
KBR1 261501Z 15012KT 21/17 A3001 RMK A01 T02130171  RH  077%=      5-min Rain = 0
KBR1 261502Z 15012KT 21/17 A3001 RMK A01 T02110169  RH  077%=      5-min Rain = 0
KBR1 261503Z 14012KT 21/17 A30 RMK A01 T02080168  RH  078%=      5-min Rain = 0
KBR1 261504Z 14012KT 21/17 A30 RMK A01 T02060169  RH  079%=      5-min Rain = 0
KBR1 261505Z 14013KT 21/17 A30 RMK A01 T02060169  RH  080%=      5-min Rain = 0
KBR1 261506Z 15013KT 21/17 A3001 RMK A01 T02060169  RH  079%=      5-min Rain = 0
KBR1 261507Z 15013KT 21/17 A3001 RMK A01 T02080170  RH  079%=      5-min Rain = 0
KBR1 261508Z 14011KT 21/17 A3001 RMK A01 T02100171  RH  078%=      5-min Rain = 0
KBR1 261509Z 13013KT 21/17 A3001 RMK A01 T02120172  RH  078%=      5-min Rain = 0
KBR1 261510Z 14013KT 21/17 A30 RMK A01 T02140171  RH  076%=      5-min Rain = 0
KBR1 261511Z 14012KT 21/17 A30 RMK A01 T02140170  RH  076%=      5-min Rain = 0
KBR1 261512Z 13012KT 21/17 A30 RMK A01 T02140172  RH  077%=      5-min Rain = 0
KBR1 261513Z 14012KT 22/17 A30 RMK A01 T02160171  RH  076%=      5-min Rain = 0
KBR1 261514Z 14010G15KT 22/17 A30 RMK A01 T02150172  RH  077%=      5-min Rain = 0
KBR1 261515Z 13011KT 21/17 A30 RMK A01 T02140171  RH  076%=      5-min Rain = 0
KBR1 261516Z 13012KT 22/17 A30 RMK A01 T02150171  RH  076%=      5-min Rain = 0
KBR1 261517Z 14012KT 21/17 A30 RMK A01 T02140171  RH  076%=      5-min Rain = 0
KBR1 261518Z 15012KT 21/17 A30 RMK A01 T02130171  RH  077%=      5-min Rain = 0
KBR1 261519Z 14012KT 21/17 A30 RMK A01 T02120171  RH  077%=      5-min Rain = 0
KBR1 261520Z 14012KT 21/17 A30 RMK A01 T02120171  RH  077%=      5-min Rain = 0
KBR1 261521Z 15011KT 21/17 A30 RMK A01 T02130172  RH  077%=      5-min Rain = 0
KBR1 261522Z 14013KT 21/17 A30 RMK A01 T02140171  RH  077%=      5-min Rain = 0
KBR1 261523Z 15010KT 21/17 A30 RMK A01 T02140172  RH  077%=      5-min Rain = 0
KBR1 261524Z 14012KT 21/17 A30 RMK A01 T02140171  RH  076%=      5-min Rain = 0
KBR1 261525Z 14013KT 22/17 A3001 RMK A01 T02150174  RH  077%=      5-min Rain = 0
KBR1 261526Z 14011KT 22/17 A3001 RMK A01 T02150173  RH  077%=      5-min Rain = 0
KBR1 261527Z 14014KT 22/17 A3001 RMK A01 T02150172  RH  077%=      5-min Rain = 0
KBR1 261528Z 14014KT 21/17 A3001 RMK A01 T02110170  RH  077%=      5-min Rain = 0
KBR1 261529Z 14014KT 21/17 A3001 RMK A01 T02100171  RH  078%=      5-min Rain = 0
KBR1 261530Z 15014KT 21/17 A3001 RMK A01 T02080169  RH  078%=      5-min Rain = 0
KBR1 261531Z 14014KT 21/17 A3001 RMK A01 T02070170  RH  079%=      5-min Rain = 0
KBR1 261532Z 14012KT 21/17 A3001 RMK A01 T02080170  RH  079%=      5-min Rain = 0
KBR1 261533Z 15013G18KT 21/17 A30 RMK A01 T02080170  RH  079%=      5-min Rain = 0
KBR1 261534Z 14012KT 21/17 A30 RMK A01 T02080171  RH  079%=      5-min Rain = 0
KBR1 261535Z 14013KT 21/17 A30 RMK A01 T02080171  RH  079%=      5-min Rain = 0
KBR1 261536Z 14013KT 21/17 A30 RMK A01 T02080171  RH  079%=      5-min Rain = 0
KBR1 261537Z 13012KT 21/17 A30 RMK A01 T02070171  RH  080%=      5-min Rain = 0
KBR1 261538Z 13013KT 21/17 A30 RMK A01 T02080172  RH  080%=      5-min Rain = 0
KBR1 261539Z 13012KT 21/17 A30 RMK A01 T02090172  RH  079%=      5-min Rain = 0
KBR1 261540Z 14011KT 21/17 A30 RMK A01 T02100173  RH  079%=      5-min Rain = 0
KBR1 261541Z 14011KT 21/17 A30 RMK A01 T02110173  RH  079%=      5-min Rain = 0
KBR1 261542Z 14010KT 21/17 A30 RMK A01 T02110172  RH  078%=      5-min Rain = 0
KBR1 261543Z 15012KT 21/17 A30 RMK A01 T02100173  RH  079%=      5-min Rain = 0
KBR1 261544Z 15013KT 21/17 A30 RMK A01 T02110173  RH  079%=      5-min Rain = 0
KBR1 261545Z 14013KT 21/17 A30 RMK A01 T02090172  RH  079%=      5-min Rain = 0
KBR1 261546Z 15015KT 21/17 A30 RMK A01 T02090171  RH  079%=      5-min Rain = 0
KBR1 261547Z 15014KT 21/17 A30 RMK A01 T02090171  RH  079%=      5-min Rain = 0
KBR1 261548Z 16013KT 21/17 A30 RMK A01 T02090172  RH  079%=      5-min Rain = 0
KBR1 261549Z 16013KT 21/17 A30 RMK A01 T02100172  RH  079%=      5-min Rain = 0
KBR1 261550Z 15012KT 21/17 A30 RMK A01 T02100172  RH  079%=      5-min Rain = 0
KBR1 261551Z 16012KT 21/17 A30 RMK A01 T02110173  RH  079%=      5-min Rain = 0
KBR1 261552Z 15010KT 21/17 A30 RMK A01 T02110173  RH  079%=      5-min Rain = 0
KBR1 261553Z 15012KT 21/17 A30 RMK A01 T02110174  RH  079%=      5-min Rain = 0
KBR1 261554Z 17012KT 21/17 A30 RMK A01 T02120174  RH  079%=      5-min Rain = 0
KBR1 261555Z 16010KT 21/17 A30 RMK A01 T02120173  RH  078%=      5-min Rain = 0
KBR1 261556Z 15010KT 21/17 A30 RMK A01 T02130174  RH  079%=      5-min Rain = 0
KBR1 261557Z 16011KT 21/17 A30 RMK A01 T02130174  RH  078%=      5-min Rain = 0
KBR1 261558Z 16010KT 21/17 A30 RMK A01 T02140174  RH  078%=      5-min Rain = 0
KBR1 261559Z 16012KT 22/17 A30 RMK A01 T02150174  RH  077%=      5-min Rain = 0
KBR1 261600Z 16014KT 22/17 A30 RMK A01 T02150173  RH  077%=      5-min Rain = 0
KBR1 261601Z 16013KT 21/17 A30 RMK A01 T02130172  RH  077%=      5-min Rain = 0
KBR1 261602Z 15012G17KT 21/17 A30 RMK A01 T02130172  RH  078%=      5-min Rain = 0
KBR1 261603Z 16015KT 21/17 A30 RMK A01 T02130172  RH  077%=      5-min Rain = 0
KBR1 261604Z 16013KT 21/17 A30 RMK A01 T02130172  RH  077%=      5-min Rain = 0
KBR1 261605Z 16010KT 21/17 A30 RMK A01 T02130173  RH  077%=      5-min Rain = 0
KBR1 261606Z 16012KT 22/17 A30 RMK A01 T02150173  RH  077%=      5-min Rain = 0
KBR1 261607Z 16014KT 22/17 A30 RMK A01 T02150172  RH  076%=      5-min Rain = 0
KBR1 261608Z 16017KT 22/17 A2999 RMK A01 T02150172  RH  076%=      5-min Rain = 0
KBR1 261609Z 16014KT 21/17 A2999 RMK A01 T02140171  RH  077%=      5-min Rain = 0
KBR1 261610Z 16014KT 21/17 A2999 RMK A01 T02140172  RH  077%=      5-min Rain = 0
KBR1 261611Z 17014KT 21/17 A2999 RMK A01 T02140172  RH  077%=      5-min Rain = 0
KBR1 261612Z 16014KT 22/17 A2999 RMK A01 T02150172  RH  077%=      5-min Rain = 0
KBR1 261613Z 15011KT 22/17 A2999 RMK A01 T02160173  RH  076%=      5-min Rain = 0
KBR1 261614Z 16011KT 22/17 A2999 RMK A01 T02170174  RH  076%=      5-min Rain = 0
KBR1 261615Z 16010KT 22/18 A30 RMK A01 T02180175  RH  076%=      5-min Rain = 0
KBR1 261616Z 16013KT 22/18 A30 RMK A01 T02190176  RH  076%=      5-min Rain = 0
KBR1 261617Z 17013KT 22/17 A30 RMK A01 T02210174  RH  075%=      5-min Rain = 0
KBR1 261618Z 16014KT 22/18 A30 RMK A01 T02210175  RH  075%=      5-min Rain = 0
KBR1 261619Z 17012KT 22/17 A30 RMK A01 T02210174  RH  075%=      5-min Rain = 0
KBR1 261620Z 17016KT 22/17 A30 RMK A01 T02200174  RH  075%=      5-min Rain = 0
KBR1 261621Z 16016KT 22/17 A30 RMK A01 T02180172  RH  075%=      5-min Rain = 0
KBR1 261622Z 16014KT 22/17 A30 RMK A01 T02180173  RH  075%=      5-min Rain = 0
KBR1 261623Z 16015KT 22/17 A30 RMK A01 T02190173  RH  075%=      5-min Rain = 0
KBR1 261624Z 16014KT 22/17 A30 RMK A01 T02200173  RH  075%=      5-min Rain = 0
KBR1 261625Z 17016KT 22/17 A30 RMK A01 T02200173  RH  075%=      5-min Rain = 0
KBR1 261626Z 17014KT 22/17 A30 RMK A01 T02190172  RH  075%=      5-min Rain = 0
KBR1 261627Z 17016KT 22/17 A30 RMK A01 T02180173  RH  076%=      5-min Rain = 0
KBR1 261628Z 16017KT 22/17 A30 RMK A01 T02170171  RH  075%=      5-min Rain = 0
KBR1 261629Z 17015KT 22/17 A30 RMK A01 T02160170  RH  075%=      5-min Rain = 0
KBR1 261630Z 17014KT 22/17 A30 RMK A01 T02150171  RH  076%=      5-min Rain = 0
KBR1 261631Z 16013KT 22/17 A30 RMK A01 T02150171  RH  076%=      5-min Rain = 0
KBR1 261632Z 15013KT 22/17 A30 RMK A01 T02150172  RH  077%=      5-min Rain = 0
KBR1 261633Z 16014KT 21/17 A30 RMK A01 T02140172  RH  077%=      5-min Rain = 0
KBR1 261634Z 15014KT 21/17 A30 RMK A01 T02140172  RH  077%=      5-min Rain = 0
KBR1 261635Z 15015KT 21/17 A30 RMK A01 T02130172  RH  077%=      5-min Rain = 0
KBR1 261636Z 15014KT 21/17 A30 RMK A01 T02130171  RH  077%=      5-min Rain = 0
KBR1 261637Z 15014KT 21/17 A30 RMK A01 T02130172  RH  077%=      5-min Rain = 0
KBR1 261638Z 15014KT 21/17 A30 RMK A01 T02120172  RH  077%=      5-min Rain = 0
KBR1 261639Z 15015KT 21/17 A30 RMK A01 T02130172  RH  077%=      5-min Rain = 0
KBR1 261640Z 16015KT 21/17 A30 RMK A01 T02120172  RH  078%=      5-min Rain = 0
KBR1 261641Z 15014KT 21/17 A30 RMK A01 T02120172  RH  078%=      5-min Rain = 0
KBR1 261642Z 16014KT 21/17 A30 RMK A01 T02120172  RH  078%=      5-min Rain = 0
KBR1 261643Z 16012KT 21/17 A30 RMK A01 T02120172  RH  078%=      5-min Rain = 0
KBR1 261644Z 16014KT 21/17 A30 RMK A01 T02120172  RH  078%=      5-min Rain = 0
KBR1 261645Z 16015KT 21/17 A2999 RMK A01 T02120171  RH  078%=      5-min Rain = 0
KBR1 261646Z 16014KT 21/17 A2999 RMK A01 T02110172  RH  078%=      5-min Rain = 0
KBR1 261647Z 15014KT 21/17 A30 RMK A01 T02110173  RH  079%=      5-min Rain = 0
KBR1 261648Z 15013KT 21/17 A30 RMK A01 T02110173  RH  079%=      5-min Rain = 0
KBR1 261649Z 14011KT 21/17 A30 RMK A01 T02110173  RH  079%=      5-min Rain = 0
KBR1 261650Z 15014KT 21/17 A2999 RMK A01 T02120173  RH  078%=      5-min Rain = 0
KBR1 261651Z 15014KT 21/17 A2999 RMK A01 T02120173  RH  078%=      5-min Rain = 0
KBR1 261652Z 14017KT 21/17 A2999 RMK A01 T02120172  RH  078%=      5-min Rain = 0
KBR1 261653Z 15014KT 21/17 A2999 RMK A01 T02120173  RH  078%=      5-min Rain = 0
KBR1 261654Z 14016KT 21/17 A2999 RMK A01 T02130174  RH  078%=      5-min Rain = 0
KBR1 261655Z 15015KT 22/17 A2998 RMK A01 T02150174  RH  077%=      5-min Rain = 0
KBR1 261656Z 14015KT 22/18 A2998 RMK A01 T02180176  RH  077%=      5-min Rain = 0
KBR1 261657Z 15013G18KT 22/18 A2999 RMK A01 T02210177  RH  076%=      5-min Rain = 0
KBR1 261658Z 15016KT 23/18 A2999 RMK A01 T02250178  RH  075%=      5-min Rain = 0
KBR1 261659Z 15017KT 22/17 A2999 RMK A01 T02240174  RH  073%=      5-min Rain = 0
KBR1 261700Z 15017KT 22/17 A2999 RMK A01 T02200173  RH  075%=      5-min Rain = 0
KBR1 261701Z 15017KT 22/17 A2999 RMK A01 T02180174  RH  076%=      5-min Rain = 0
KBR1 261702Z 15017KT 22/17 A2999 RMK A01 T02170173  RH  076%=      5-min Rain = 0
KBR1 261703Z 16017KT 22/17 A2999 RMK A01 T02150173  RH  077%=      5-min Rain = 0
KBR1 261704Z 16015KT 22/17 A2999 RMK A01 T02150173  RH  077%=      5-min Rain = 0
KBR1 261705Z 16015KT 21/17 A2999 RMK A01 T02140173  RH  077%=      5-min Rain = 0
KBR1 261706Z 16015KT 21/17 A2999 RMK A01 T02130173  RH  078%=      5-min Rain = 0
KBR1 261707Z 16015KT 21/17 A30 RMK A01 T02120172  RH  078%=      5-min Rain = 0
KBR1 261708Z 17015KT 21/17 A30 RMK A01 T02120172  RH  078%=      5-min Rain = 0
KBR1 261709Z 16015KT 21/17 A30 RMK A01 T02110172  RH  078%=      5-min Rain = 0
KBR1 261710Z 16015KT 21/17 A30 RMK A01 T02100172  RH  079%=      5-min Rain = 0
KBR1 261711Z 16015KT 21/17 A30 RMK A01 T02090172  RH  079%=      5-min Rain = 0
KBR1 261712Z 15012KT 21/17 A30 RMK A01 T02080172  RH  080%=      5-min Rain = 0
KBR1 261713Z 16013KT 21/17 A30 RMK A01 T02080172  RH  080%=      5-min Rain = 0
KBR1 261714Z 17015KT 21/17 A30 RMK A01 T02080172  RH  080%=      5-min Rain = 0
KBR1 261715Z 16011KT 21/17 A30 RMK A01 T02070172  RH  080%=      5-min Rain = 0
KBR1 261716Z 17014KT 21/17 A30 RMK A01 T02070173  RH  081%=      5-min Rain = 0
KBR1 261717Z 17011KT 21/17 A30 RMK A01 T02070172  RH  080%=      5-min Rain = 0
KBR1 261718Z 17011KT 21/17 A30 RMK A01 T02060172  RH  081%=      5-min Rain = 0
KBR1 261719Z 17010G15KT 21/17 A30 RMK A01 T02060172  RH  081%=      5-min Rain = 0
KBR1 261720Z 17013KT 21/17 A30 RMK A01 T02060172  RH  081%=      5-min Rain = 0
KBR1 261721Z 17012KT 21/17 A30 RMK A01 T02060172  RH  080%=      5-min Rain = 0
KBR1 261722Z 17014KT 21/17 A2999 RMK A01 T02060172  RH  081%=      5-min Rain = 0
KBR1 261723Z 17013KT 21/17 A2999 RMK A01 T02060172  RH  081%=      5-min Rain = 0
KBR1 261724Z 17012KT 21/17 A2999 RMK A01 T02050172  RH  082%=      5-min Rain = 0
KBR1 261725Z 17012KT 21/17 A2999 RMK A01 T02050174  RH  082%=      5-min Rain = 0
KBR1 261726Z 17013KT 21/17 A2999 RMK A01 T02050173  RH  082%=      5-min Rain = 0
KBR1 261727Z 17013KT 21/17 A2999 RMK A01 T02050173  RH  082%=      5-min Rain = 0
KBR1 261728Z 17013KT 21/17 A2999 RMK A01 T02050173  RH  082%=      5-min Rain = 0
KBR1 261729Z 17012KT 20/17 A2999 RMK A01 T02040173  RH  082%=      5-min Rain = 0
KBR1 261730Z 17011KT 20/17 A2999 RMK A01 T02040172  RH  082%=      5-min Rain = 0
KBR1 261731Z 17009KT 21/17 A2999 RMK A01 T02050174  RH  083%=      5-min Rain = 0
KBR1 261732Z 16012KT 21/17 A2999 RMK A01 T02050174  RH  082%=      5-min Rain = 0
KBR1 261733Z 16010KT 21/17 A2999 RMK A01 T02060173  RH  082%=      5-min Rain = 0
KBR1 261734Z 16011KT 21/17 A2998 RMK A01 T02060173  RH  082%=      5-min Rain = 0
KBR1 261735Z 16012KT 21/17 A2998 RMK A01 T02060172  RH  081%=      5-min Rain = 0
KBR1 261736Z 17012KT 21/17 A2999 RMK A01 T02070173  RH  081%=      5-min Rain = 0
KBR1 261737Z 17011KT 21/17 A2999 RMK A01 T02070173  RH  081%=      5-min Rain = 0
KBR1 261738Z 17014KT 21/17 A2999 RMK A01 T02070173  RH  081%=      5-min Rain = 0
KBR1 261739Z 17012KT 21/17 A2999 RMK A01 T02080173  RH  080%=      5-min Rain = 0
KBR1 261740Z 17010KT 21/17 A2999 RMK A01 T02070173  RH  081%=      5-min Rain = 0
KBR1 261741Z 17011KT 21/17 A2998 RMK A01 T02070172  RH  080%=      5-min Rain = 0
KBR1 261742Z 17010KT 21/17 A2998 RMK A01 T02070172  RH  080%=      5-min Rain = 0
KBR1 261743Z 17010KT 21/17 A2998 RMK A01 T02070172  RH  081%=      5-min Rain = 0
KBR1 261744Z 17011KT 21/17 A2999 RMK A01 T02070173  RH  081%=      5-min Rain = 0
KBR1 261745Z 17012KT 21/17 A2999 RMK A01 T02070174  RH  081%=      5-min Rain = 0
KBR1 261746Z 17012KT 21/17 A2999 RMK A01 T02070173  RH  081%=      5-min Rain = 0
KBR1 261747Z 17011KT 21/17 A2999 RMK A01 T02070173  RH  081%=      5-min Rain = 0
KBR1 261748Z 17012KT 21/17 A2999 RMK A01 T02070173  RH  081%=      5-min Rain = 0
KBR1 261749Z 17011KT 21/17 A2999 RMK A01 T02070173  RH  081%=      5-min Rain = 0
KBR1 261750Z 17012KT 21/17 A2998 RMK A01 T02070173  RH  081%=      5-min Rain = 0
KBR1 261751Z 17012KT 21/17 A2998 RMK A01 T02070173  RH  081%=      5-min Rain = 0
KBR1 261752Z 17011KT 21/17 A2998 RMK A01 T02070173  RH  081%=      5-min Rain = 0
KBR1 261753Z 17012KT 21/17 A2998 RMK A01 T02080174  RH  081%=      5-min Rain = 0
KBR1 261754Z 17012KT 21/17 A2998 RMK A01 T02090174  RH  080%=      5-min Rain = 0
KBR1 261755Z 16011KT 21/17 A2998 RMK A01 T02090173  RH  080%=      5-min Rain = 0
KBR1 261756Z 17010KT 21/17 A2998 RMK A01 T02090174  RH  080%=      5-min Rain = 0
KBR1 261757Z 16011KT 21/18 A2998 RMK A01 T02110175  RH  080%=      5-min Rain = 0
KBR1 261758Z 16011KT 21/17 A2998 RMK A01 T02110174  RH  079%=      5-min Rain = 0
KBR1 261759Z 17012KT 21/17 A2998 RMK A01 T02110174  RH  080%=      5-min Rain = 0
KBR1 261800Z 17012KT 21/17 A2998 RMK A01 T02110174  RH  079%=      5-min Rain = 0
KBR1 261801Z 17013KT 21/17 A2998 RMK A01 T02110174  RH  080%=      5-min Rain = 0
KBR1 261802Z 17013KT 21/17 A2999 RMK A01 T02110174  RH  079%=      5-min Rain = 0
KBR1 261803Z 17014KT 21/17 A2999 RMK A01 T02110173  RH  079%=      5-min Rain = 0
KBR1 261804Z 17011KT 21/17 A2999 RMK A01 T02100173  RH  079%=      5-min Rain = 0
KBR1 261805Z 16011KT 21/17 A2998 RMK A01 T02100174  RH  080%=      5-min Rain = 0
KBR1 261806Z 16009KT 21/17 A2998 RMK A01 T02100174  RH  080%=      5-min Rain = 0
KBR1 261807Z 16010KT 21/18 A2998 RMK A01 T02100175  RH  080%=      5-min Rain = 0
KBR1 261808Z 16010KT 21/18 A2998 RMK A01 T02110175  RH  080%=      5-min Rain = 0
KBR1 261809Z 16011KT 21/18 A2998 RMK A01 T02110175  RH  080%=      5-min Rain = 0
KBR1 261810Z 16011KT 21/18 A2998 RMK A01 T02120175  RH  080%=      5-min Rain = 0
KBR1 261811Z 16011KT 21/18 A2998 RMK A01 T02120175  RH  079%=      5-min Rain = 0
KBR1 261812Z 17010KT 21/17 A2998 RMK A01 T02130174  RH  079%=      5-min Rain = 0
KBR1 261813Z 17011KT 21/18 A2998 RMK A01 T02130175  RH  079%=      5-min Rain = 0
KBR1 261814Z 18012KT 21/18 A2999 RMK A01 T02140175  RH  079%=      5-min Rain = 0
KBR1 261815Z 17012KT 21/18 A2999 RMK A01 T02140175  RH  079%=      5-min Rain = 0
KBR1 261816Z 17013KT 21/18 A2999 RMK A01 T02140176  RH  079%=      5-min Rain = 0
KBR1 261817Z 17014KT 21/18 A2999 RMK A01 T02140175  RH  078%=      5-min Rain = 0
KBR1 261818Z 17013KT 21/17 A2999 RMK A01 T02130174  RH  078%=      5-min Rain = 0
KBR1 261819Z 17012KT 21/18 A2998 RMK A01 T02130175  RH  079%=      5-min Rain = 0
KBR1 261820Z 17011KT 21/18 A2997 RMK A01 T02130175  RH  079%=      5-min Rain = 0
KBR1 261821Z 17012KT 21/18 A2997 RMK A01 T02140175  RH  078%=      5-min Rain = 0
KBR1 261822Z 16012KT 22/18 A2997 RMK A01 T02150175  RH  078%=      5-min Rain = 0
KBR1 261823Z 16014KT 22/18 A2997 RMK A01 T02170175  RH  077%=      5-min Rain = 0
KBR1 261824Z 16015KT 22/18 A2997 RMK A01 T02180175  RH  077%=      5-min Rain = 0
KBR1 261825Z 16015KT 22/18 A2997 RMK A01 T02190175  RH  076%=      5-min Rain = 0
KBR1 261826Z 16014KT 22/18 A2997 RMK A01 T02190175  RH  076%=      5-min Rain = 0
KBR1 261827Z 17016KT 22/18 A2996 RMK A01 T02200175  RH  076%=      5-min Rain = 0
KBR1 261828Z 16013KT 22/18 A2996 RMK A01 T02210175  RH  075%=      5-min Rain = 0
KBR1 261829Z 17013KT 22/18 A2996 RMK A01 T02220175  RH  075%=      5-min Rain = 0
KBR1 261830Z 17013KT 22/18 A2996 RMK A01 T02230176  RH  075%=      5-min Rain = 0
KBR1 261831Z 16013KT 22/18 A2995 RMK A01 T02240177  RH  075%=      5-min Rain = 0
KBR1 261832Z 16010KT 23/18 A2995 RMK A01 T02280181  RH  075%=      5-min Rain = 0
KBR1 261833Z 17012KT 23/18 A2995 RMK A01 T02300178  RH  072%=      5-min Rain = 0
KBR1 261834Z 16012KT 23/18 A2995 RMK A01 T02290178  RH  073%=      5-min Rain = 0
KBR1 261835Z 16014KT 23/18 A2996 RMK A01 T02290178  RH  073%=      5-min Rain = 0
KBR1 261836Z 16014KT 23/18 A2996 RMK A01 T02270176  RH  073%=      5-min Rain = 0
KBR1 261837Z 16012KT 23/18 A2996 RMK A01 T02260176  RH  073%=      5-min Rain = 0
KBR1 261838Z 15011KT 23/18 A2996 RMK A01 T02270179  RH  074%=      5-min Rain = 0
KBR1 261839Z 16012KT 23/18 A2996 RMK A01 T02290178  RH  073%=      5-min Rain = 0
KBR1 261840Z 16014KT 23/18 A2997 RMK A01 T02280179  RH  073%=      5-min Rain = 0
KBR1 261841Z 16013KT 23/18 A2997 RMK A01 T02270176  RH  073%=      5-min Rain = 0
KBR1 261842Z 18012KT 23/18 A2997 RMK A01 T02250177  RH  074%=      5-min Rain = 0
KBR1 261843Z 18012KT 22/18 A2996 RMK A01 T02230176  RH  074%=      5-min Rain = 0
KBR1 261844Z 18014KT 22/18 A2996 RMK A01 T02220176  RH  075%=      5-min Rain = 0
KBR1 261845Z 17015KT 22/18 A2996 RMK A01 T02210175  RH  075%=      5-min Rain = 0
KBR1 261846Z 16017KT 22/18 A2996 RMK A01 T02210175  RH  075%=      5-min Rain = 0
KBR1 261847Z 17014KT 22/17 A2996 RMK A01 T02200174  RH  075%=      5-min Rain = 0
KBR1 261848Z 17017KT 22/17 A2996 RMK A01 T02210174  RH  075%=      5-min Rain = 0
KBR1 261849Z 17016KT 22/17 A2996 RMK A01 T02200174  RH  075%=      5-min Rain = 0
KBR1 261850Z 17018KT 22/18 A2996 RMK A01 T02200175  RH  076%=      5-min Rain = 0
KBR1 261851Z 17019KT 22/17 A2996 RMK A01 T02190174  RH  075%=      5-min Rain = 0
KBR1 261852Z 18018KT 22/17 A2996 RMK A01 T02190174  RH  075%=      5-min Rain = 0
KBR1 261853Z 18019KT 22/17 A2996 RMK A01 T02190174  RH  076%=      5-min Rain = 0
KBR1 261854Z 18019KT 22/17 A2996 RMK A01 T02180174  RH  076%=      5-min Rain = 0
KBR1 261855Z 18018KT 22/18 A2996 RMK A01 T02180175  RH  076%=      5-min Rain = 0
KBR1 261856Z 18015KT 22/18 A2996 RMK A01 T02180175  RH  076%=      5-min Rain = 0
KBR1 261857Z 18013KT 22/18 A2996 RMK A01 T02190175  RH  076%=      5-min Rain = 0
KBR1 261858Z 18013KT 22/18 A2996 RMK A01 T02190176  RH  076%=      5-min Rain = 0
KBR1 261859Z 17017KT 22/18 A2996 RMK A01 T02200175  RH  076%=      5-min Rain = 0
KBR1 261900Z 18016KT 22/18 A2996 RMK A01 T02190175  RH  076%=      5-min Rain = 0
KBR1 261901Z 19014KT 22/18 A2996 RMK A01 T02180175  RH  076%=      5-min Rain = 0
KBR1 261902Z 18012KT 22/18 A2996 RMK A01 T02180176  RH  077%=      5-min Rain = 0
KBR1 261903Z 19012KT 22/18 A2996 RMK A01 T02180175  RH  077%=      5-min Rain = 0
KBR1 261904Z 19012KT 22/18 A2995 RMK A01 T02180175  RH  077%=      5-min Rain = 0
KBR1 261905Z 19012KT 22/18 A2995 RMK A01 T02180175  RH  076%=      5-min Rain = 0
KBR1 261906Z 19012KT 22/18 A2995 RMK A01 T02190175  RH  076%=      5-min Rain = 0
KBR1 261907Z 18011KT 22/18 A2995 RMK A01 T02190175  RH  076%=      5-min Rain = 0
KBR1 261908Z 18010KT 22/18 A2994 RMK A01 T02200176  RH  076%=      5-min Rain = 0
KBR1 261909Z 18012KT 22/18 A2994 RMK A01 T02230176  RH  075%=      5-min Rain = 0
KBR1 261910Z 18013KT 22/18 A2994 RMK A01 T02240177  RH  075%=      5-min Rain = 0
KBR1 261911Z 18013KT 23/18 A2995 RMK A01 T02260177  RH  074%=      5-min Rain = 0
KBR1 261912Z 18012KT 23/18 A2994 RMK A01 T02260176  RH  073%=      5-min Rain = 0
KBR1 261913Z 17012KT 23/18 A2994 RMK A01 T02270177  RH  073%=      5-min Rain = 0
KBR1 261914Z 19011KT 23/18 A2994 RMK A01 T02280178  RH  074%=      5-min Rain = 0
KBR1 261915Z 19011KT 23/18 A2994 RMK A01 T02290177  RH  072%=      5-min Rain = 0
KBR1 261916Z 20009KT 23/18 A2994 RMK A01 T02290178  RH  073%=      5-min Rain = 0
KBR1 261917Z 18010KT 23/18 A2994 RMK A01 T02300179  RH  073%=      5-min Rain = 0
KBR1 261918Z 19013KT 23/18 A2995 RMK A01 T02310177  RH  071%=      5-min Rain = 0
KBR1 261919Z 19014KT 23/18 A2995 RMK A01 T02300177  RH  072%=      5-min Rain = 0
KBR1 261920Z 18015KT 23/18 A2995 RMK A01 T02300176  RH  072%=      5-min Rain = 0
KBR1 261921Z 19015KT 23/18 A2995 RMK A01 T02290176  RH  072%=      5-min Rain = 0
KBR1 261922Z 18017KT 23/18 A2996 RMK A01 T02280175  RH  072%=      5-min Rain = 0
KBR1 261923Z 19017KT 23/17 A2996 RMK A01 T02270174  RH  072%=      5-min Rain = 0
KBR1 261924Z 19017KT 23/17 A2996 RMK A01 T02260174  RH  072%=      5-min Rain = 0
KBR1 261925Z 19015KT 23/17 A2996 RMK A01 T02250174  RH  073%=      5-min Rain = 0
KBR1 261926Z 19015G20KT 22/18 A2996 RMK A01 T02240175  RH  074%=      5-min Rain = 0
KBR1 261927Z 19017KT 22/18 A2996 RMK A01 T02240176  RH  074%=      5-min Rain = 0
KBR1 261928Z 18016KT 22/18 A2996 RMK A01 T02230175  RH  074%=      5-min Rain = 0
KBR1 261929Z 18013KT 22/18 A2996 RMK A01 T02220175  RH  075%=      5-min Rain = 0
KBR1 261930Z 17014KT 22/18 A2996 RMK A01 T02220176  RH  075%=      5-min Rain = 0
KBR1 261931Z 18011KT 22/18 A2996 RMK A01 T02220176  RH  075%=      5-min Rain = 0
KBR1 261932Z 18010KT 22/18 A2996 RMK A01 T02230177  RH  075%=      5-min Rain = 0
KBR1 261933Z 18010KT 22/18 A2996 RMK A01 T02240178  RH  075%=      5-min Rain = 0
KBR1 261934Z 18013KT 22/18 A2996 RMK A01 T02240178  RH  075%=      5-min Rain = 0
KBR1 261935Z 18012KT 22/18 A2996 RMK A01 T02240178  RH  075%=      5-min Rain = 0
KBR1 261936Z 19009KT 22/18 A2996 RMK A01 T02240178  RH  075%=      5-min Rain = 0
KBR1 261937Z 19012KT 23/18 A2996 RMK A01 T02250178  RH  075%=      5-min Rain = 0
KBR1 261938Z 18013KT 23/18 A2996 RMK A01 T02250178  RH  075%=      5-min Rain = 0
KBR1 261939Z 17012KT 23/18 A2996 RMK A01 T02260178  RH  074%=      5-min Rain = 0
KBR1 261940Z 18013KT 23/18 A2996 RMK A01 T02260178  RH  074%=      5-min Rain = 0
KBR1 261941Z 18013KT 23/18 A2995 RMK A01 T02260178  RH  074%=      5-min Rain = 0
KBR1 261942Z 18012KT 23/18 A2995 RMK A01 T02260178  RH  074%=      5-min Rain = 0
KBR1 261943Z 18012KT 23/18 A2995 RMK A01 T02260177  RH  074%=      5-min Rain = 0
KBR1 261944Z 18010KT 23/18 A2995 RMK A01 T02270179  RH  074%=      5-min Rain = 0
KBR1 261945Z 18013KT 23/18 A2995 RMK A01 T02290180  RH  074%=      5-min Rain = 0
KBR1 261946Z 18012KT 23/18 A2995 RMK A01 T02290178  RH  073%=      5-min Rain = 0
KBR1 261947Z 18011KT 23/18 A2995 RMK A01 T02280178  RH  073%=      5-min Rain = 0
KBR1 261948Z 19014KT 23/18 A2995 RMK A01 T02280179  RH  074%=      5-min Rain = 0
KBR1 261949Z 18013KT 23/18 A2995 RMK A01 T02290179  RH  074%=      5-min Rain = 0
KBR1 261950Z 17013KT 23/18 A2995 RMK A01 T02290179  RH  073%=      5-min Rain = 0
KBR1 261951Z 18012KT 23/18 A2995 RMK A01 T02290180  RH  074%=      5-min Rain = 0
KBR1 261952Z 18010KT 23/18 A2995 RMK A01 T02290180  RH  074%=      5-min Rain = 0
KBR1 261953Z 18011KT 23/18 A2995 RMK A01 T02300181  RH  074%=      5-min Rain = 0
KBR1 261954Z 16011KT 23/18 A2995 RMK A01 T02320183  RH  074%=      5-min Rain = 0
KBR1 261955Z 16012KT 23/18 A2994 RMK A01 T02330181  RH  072%=      5-min Rain = 0
KBR1 261956Z 16012KT 23/18 A2994 RMK A01 T02330180  RH  072%=      5-min Rain = 0
KBR1 261957Z 17013KT 23/18 A2994 RMK A01 T02320180  RH  072%=      5-min Rain = 0
KBR1 261958Z 17015KT 23/18 A2994 RMK A01 T02310180  RH  073%=      5-min Rain = 0
KBR1 261959Z 16015KT 23/18 A2994 RMK A01 T02310180  RH  073%=      5-min Rain = 0
KBR1 262000Z 17011KT 23/18 A2994 RMK A01 T02310180  RH  073%=      5-min Rain = 0
KBR1 262001Z 16015KT 23/18 A2994 RMK A01 T02320180  RH  072%=      5-min Rain = 0
KBR1 262002Z 17015G20KT 23/18 A2994 RMK A01 T02320178  RH  071%=      5-min Rain = 0
KBR1 262003Z 17014KT 23/18 A2994 RMK A01 T02330178  RH  071%=      5-min Rain = 0
KBR1 262004Z 17013KT 23/18 A2994 RMK A01 T02330179  RH  071%=      5-min Rain = 0
KBR1 262005Z 17014KT 23/18 A2993 RMK A01 T02340180  RH  071%=      5-min Rain = 0
KBR1 262006Z 17015KT 24/18 A2993 RMK A01 T02350179  RH  071%=      5-min Rain = 0
KBR1 262007Z 17015KT 24/18 A2993 RMK A01 T02360179  RH  070%=      5-min Rain = 0
KBR1 262008Z 17013KT 24/18 A2993 RMK A01 T02350179  RH  071%=      5-min Rain = 0
KBR1 262009Z 17014KT 24/18 A2994 RMK A01 T02360180  RH  071%=      5-min Rain = 0
KBR1 262010Z 17013KT 24/18 A2994 RMK A01 T02380180  RH  070%=      5-min Rain = 0
KBR1 262011Z 16016KT 24/18 A2994 RMK A01 T02390181  RH  070%=      5-min Rain = 0
KBR1 262012Z 18017KT 24/18 A2993 RMK A01 T02400179  RH  069%=      5-min Rain = 0
KBR1 262013Z 18017KT 24/18 A2993 RMK A01 T02400179  RH  069%=      5-min Rain = 0
KBR1 262014Z 18015KT 24/18 A2993 RMK A01 T02400179  RH  069%=      5-min Rain = 0
KBR1 262015Z 17014KT 24/18 A2993 RMK A01 T02400178  RH  068%=      5-min Rain = 0
KBR1 262016Z 18011KT 24/18 A2993 RMK A01 T02400178  RH  068%=      5-min Rain = 0
KBR1 262017Z 18014KT 24/18 A2993 RMK A01 T02400179  RH  069%=      5-min Rain = 0
KBR1 262018Z 18014KT 24/18 A2993 RMK A01 T02420178  RH  067%=      5-min Rain = 0
KBR1 262019Z 17014KT 24/18 A2993 RMK A01 T02430179  RH  067%=      5-min Rain = 0
KBR1 262020Z 18016KT 25/18 A2993 RMK A01 T02450180  RH  067%=      5-min Rain = 0
KBR1 262021Z 17014KT 25/18 A2993 RMK A01 T02460182  RH  067%=      5-min Rain = 0
KBR1 262022Z 17012KT 25/18 A2993 RMK A01 T02480181  RH  067%=      5-min Rain = 0
KBR1 262023Z 17013KT 25/18 A2993 RMK A01 T02490183  RH  066%=      5-min Rain = 0
KBR1 262024Z 17016KT 25/18 A2993 RMK A01 T02500182  RH  066%=      5-min Rain = 0
KBR1 262025Z 17015KT 25/18 A2993 RMK A01 T02490181  RH  066%=      5-min Rain = 0
KBR1 262026Z 18017KT 25/18 A2992 RMK A01 T02490179  RH  065%=      5-min Rain = 0
KBR1 262027Z 17017KT 25/18 A2992 RMK A01 T02480179  RH  065%=      5-min Rain = 0
KBR1 262028Z 17017KT 25/18 A2992 RMK A01 T02490179  RH  065%=      5-min Rain = 0
KBR1 262029Z 17016KT 25/18 A2992 RMK A01 T02470180  RH  066%=      5-min Rain = 0
KBR1 262030Z 17018KT 25/18 A2992 RMK A01 T02460178  RH  066%=      5-min Rain = 0
KBR1 262031Z 17017KT 25/18 A2992 RMK A01 T02450178  RH  066%=      5-min Rain = 0
KBR1 262032Z 17019KT 25/18 A2991 RMK A01 T02450177  RH  066%=      5-min Rain = 0
KBR1 262033Z 17018KT 25/18 A2991 RMK A01 T02450176  RH  065%=      5-min Rain = 0
KBR1 262034Z 17016KT 25/18 A2991 RMK A01 T02460177  RH  065%=      5-min Rain = 0
KBR1 262035Z 17017KT 25/18 A2991 RMK A01 T02490178  RH  065%=      5-min Rain = 0
KBR1 262036Z 18017KT 25/18 A2991 RMK A01 T02510178  RH  064%=      5-min Rain = 0
KBR1 262037Z 18016KT 25/18 A2991 RMK A01 T02520178  RH  064%=      5-min Rain = 0
KBR1 262038Z 18018KT 25/18 A2991 RMK A01 T02520179  RH  064%=      5-min Rain = 0
KBR1 262039Z 18016KT 25/18 A2991 RMK A01 T02510179  RH  064%=      5-min Rain = 0
KBR1 262040Z 18015KT 25/18 A2991 RMK A01 T02500180  RH  065%=      5-min Rain = 0
KBR1 262041Z 18016KT 25/18 A2991 RMK A01 T02510181  RH  065%=      5-min Rain = 0
KBR1 262042Z 18019KT 25/18 A2991 RMK A01 T02520178  RH  063%=      5-min Rain = 0
KBR1 262043Z 17016G21KT 25/18 A2991 RMK A01 T02510176  RH  063%=      5-min Rain = 0
KBR1 262044Z 17016KT 25/18 A2991 RMK A01 T02520177  RH  063%=      5-min Rain = 0
KBR1 262045Z 18018KT 25/17 A299 RMK A01 T02520174  RH  062%=      5-min Rain = 0
KBR1 262046Z 18021KT 25/18 A299 RMK A01 T02510175  RH  063%=      5-min Rain = 0
KBR1 262047Z 17017KT 25/18 A299 RMK A01 T02500175  RH  063%=      5-min Rain = 0
KBR1 262048Z 17017KT 25/18 A299 RMK A01 T02520177  RH  063%=      5-min Rain = 0
KBR1 262049Z 17019G24KT 25/18 A299 RMK A01 T02540175  RH  062%=      5-min Rain = 0
KBR1 262050Z 18020KT 25/17 A299 RMK A01 T02540173  RH  061%=      5-min Rain = 0
KBR1 262051Z 18018KT 25/18 A299 RMK A01 T02540176  RH  062%=      5-min Rain = 0
KBR1 262052Z 18017KT 26/18 A299 RMK A01 T02570176  RH  061%=      5-min Rain = 0
KBR1 262053Z 18012KT 26/18 A2989 RMK A01 T02570178  RH  061%=      5-min Rain = 0
KBR1 262054Z 17015KT 26/18 A2989 RMK A01 T02590180  RH  062%=      5-min Rain = 0
KBR1 262055Z 16018KT 26/18 A2989 RMK A01 T02590178  RH  061%=      5-min Rain = 0
KBR1 262056Z 17019KT 26/18 A2989 RMK A01 T02560175  RH  061%=      5-min Rain = 0
KBR1 262057Z 17019KT 26/17 A2989 RMK A01 T02550173  RH  061%=      5-min Rain = 0
KBR1 262058Z 19019KT 25/17 A2989 RMK A01 T02530172  RH  061%=      5-min Rain = 0
KBR1 262059Z 18013KT 25/17 A2989 RMK A01 T02520173  RH  061%=      5-min Rain = 0
KBR1 262100Z 18013KT 25/17 A2989 RMK A01 T02540174  RH  061%=      5-min Rain = 0
KBR1 262101Z 16016G21KT 25/17 A2988 RMK A01 T02540174  RH  061%=      5-min Rain = 0
KBR1 262102Z 17018KT 26/17 A2988 RMK A01 T02560174  RH  060%=      5-min Rain = 0
KBR1 262103Z 17015KT 26/17 A2988 RMK A01 T02560174  RH  060%=      5-min Rain = 0
KBR1 262104Z 18016KT 26/18 A2988 RMK A01 T02570176  RH  061%=      5-min Rain = 0
KBR1 262105Z 18015KT 26/18 A2988 RMK A01 T02570176  RH  061%=      5-min Rain = 0
KBR1 262106Z 17014KT 26/18 A2988 RMK A01 T02560176  RH  061%=      5-min Rain = 0
KBR1 262107Z 18016KT 26/17 A2988 RMK A01 T02560174  RH  060%=      5-min Rain = 0
KBR1 262108Z 17013KT 26/18 A2988 RMK A01 T02560175  RH  061%=      5-min Rain = 0
KBR1 262109Z 16017KT 26/18 A2988 RMK A01 T02600178  RH  061%=      5-min Rain = 0
KBR1 262110Z 17019KT 26/18 A2988 RMK A01 T02630176  RH  059%=      5-min Rain = 0
KBR1 262111Z 18017KT 26/18 A2988 RMK A01 T02640177  RH  059%=      5-min Rain = 0
KBR1 262112Z 17015G20KT 27/18 A2988 RMK A01 T02650180  RH  059%=      5-min Rain = 0
KBR1 262113Z 17020KT 27/18 A2988 RMK A01 T02690178  RH  058%=      5-min Rain = 0
KBR1 262114Z 17019KT 27/18 A2988 RMK A01 T02680176  RH  057%=      5-min Rain = 0
KBR1 262115Z 16018KT 27/18 A2988 RMK A01 T02670176  RH  057%=      5-min Rain = 0
KBR1 262116Z 16019KT 27/18 A2988 RMK A01 T02690176  RH  057%=      5-min Rain = 0
KBR1 262117Z 17019KT 27/18 A2988 RMK A01 T02720177  RH  056%=      5-min Rain = 0
KBR1 262118Z 17020KT 27/18 A2988 RMK A01 T02720179  RH  057%=      5-min Rain = 0
KBR1 262119Z 17021G26KT 27/18 A2988 RMK A01 T02720179  RH  057%=      5-min Rain = 0
KBR1 262120Z 16023G28KT 27/18 A2988 RMK A01 T02700176  RH  056%=      5-min Rain = 0
KBR1 262121Z 16021KT 27/18 A2988 RMK A01 T02680176  RH  057%=      5-min Rain = 0
KBR1 262122Z 16021KT 27/18 A2988 RMK A01 T02670175  RH  057%=      5-min Rain = 0
KBR1 262123Z 17021KT 27/18 A2988 RMK A01 T02660176  RH  058%=      5-min Rain = 0
KBR1 262124Z 16018KT 26/18 A2988 RMK A01 T02640176  RH  058%=      5-min Rain = 0
KBR1 262125Z 16020KT 26/18 A2988 RMK A01 T02640179  RH  059%=      5-min Rain = 0
KBR1 262126Z 16022G27KT 27/18 A2988 RMK A01 T02650179  RH  059%=      5-min Rain = 0
KBR1 262127Z 16022KT 26/18 A2988 RMK A01 T02600178  RH  060%=      5-min Rain = 0
KBR1 262128Z 17018KT 26/18 A2988 RMK A01 T02570179  RH  062%=      5-min Rain = 0
KBR1 262129Z 16021KT 26/18 A2987 RMK A01 T02600179  RH  061%=      5-min Rain = 0
KBR1 262130Z 16019G26KT 26/18 A2987 RMK A01 T02590177  RH  061%=      5-min Rain = 0
KBR1 262131Z 15019KT 26/18 A2987 RMK A01 T02570178  RH  062%=      5-min Rain = 0
KBR1 262132Z 15019G24KT 26/18 A2987 RMK A01 T02570178  RH  062%=      5-min Rain = 0
KBR1 262133Z 16020KT 26/18 A2987 RMK A01 T02590175  RH  060%=      5-min Rain = 0
KBR1 262134Z 15018KT 26/17 A2987 RMK A01 T02570174  RH  060%=      5-min Rain = 0
KBR1 262135Z 16018KT 26/18 A2987 RMK A01 T02570175  RH  060%=      5-min Rain = 0
KBR1 262136Z 16018KT 26/17 A2986 RMK A01 T02590174  RH  060%=      5-min Rain = 0
KBR1 262137Z 17014G19KT 26/18 A2986 RMK A01 T02610177  RH  060%=      5-min Rain = 0
KBR1 262138Z 16018KT 27/18 A2986 RMK A01 T02660179  RH  059%=      5-min Rain = 0
KBR1 262139Z 17017KT 27/18 A2986 RMK A01 T02650175  RH  058%=      5-min Rain = 0
KBR1 262140Z 17019KT 27/18 A2986 RMK A01 T02650176  RH  058%=      5-min Rain = 0
KBR1 262141Z 17018KT 27/17 A2986 RMK A01 T02650174  RH  057%=      5-min Rain = 0
KBR1 262142Z 17022KT 27/17 A2986 RMK A01 T02670170  RH  055%=      5-min Rain = 0
KBR1 262143Z 17022G27KT 27/17 A2986 RMK A01 T02670167  RH  054%=      5-min Rain = 0
KBR1 262144Z 16020G26KT 27/17 A2986 RMK A01 T02660168  RH  055%=      5-min Rain = 0
KBR1 262145Z 16019G24KT 27/17 A2986 RMK A01 T02690171  RH  055%=      5-min Rain = 0
KBR1 262146Z 18023KT 27/17 A2986 RMK A01 T02700167  RH  053%=      5-min Rain = 0
KBR1 262147Z 17023G28KT 27/17 A2986 RMK A01 T02680167  RH  054%=      5-min Rain = 0
KBR1 262148Z 18022G27KT 27/17 A2985 RMK A01 T02660166  RH  054%=      5-min Rain = 0
KBR1 262149Z 18023KT 27/17 A2985 RMK A01 T02650167  RH  055%=      5-min Rain = 0
KBR1 262150Z 18022G28KT 27/17 A2985 RMK A01 T02650166  RH  055%=      5-min Rain = 0
KBR1 262151Z 17019G25KT 27/17 A2985 RMK A01 T02680167  RH  054%=      5-min Rain = 0
KBR1 262152Z 17021KT 27/17 A2985 RMK A01 T02710166  RH  053%=      5-min Rain = 0
KBR1 262153Z 17019G26KT 27/17 A2985 RMK A01 T02710166  RH  053%=      5-min Rain = 0
KBR1 262154Z 16023KT 27/16 A2985 RMK A01 T02710164  RH  052%=      5-min Rain = 0
KBR1 262155Z 17018KT 27/17 A2985 RMK A01 T02700165  RH  052%=      5-min Rain = 0
KBR1 262156Z 16020G26KT 27/17 A2985 RMK A01 T02710166  RH  053%=      5-min Rain = 0
KBR1 262157Z 17017KT 27/17 A2985 RMK A01 T02700167  RH  053%=      5-min Rain = 0
KBR1 262158Z 17015G20KT 27/17 A2985 RMK A01 T02730170  RH  053%=      5-min Rain = 0
KBR1 262159Z 16019G25KT 28/17 A2984 RMK A01 T02760167  RH  051%=      5-min Rain = 0
KBR1 262200Z 16021G26KT 28/16 A2984 RMK A01 T02770162  RH  050%=      5-min Rain = 0
KBR1 262201Z 17018KT 28/16 A2984 RMK A01 T02750162  RH  050%=      5-min Rain = 0
KBR1 262202Z 16018KT 27/16 A2984 RMK A01 T02730164  RH  051%=      5-min Rain = 0
KBR1 262203Z 17016KT 27/17 A2984 RMK A01 T02740168  RH  052%=      5-min Rain = 0
KBR1 262204Z 17014KT 28/17 A2984 RMK A01 T02760168  RH  052%=      5-min Rain = 0
KBR1 262205Z 17018KT 28/17 A2984 RMK A01 T02760166  RH  051%=      5-min Rain = 0
KBR1 262206Z 17023G28KT 28/16 A2983 RMK A01 T02790160  RH  049%=      5-min Rain = 0
KBR1 262207Z 18023KT 28/15 A2983 RMK A01 T02780150  RH  046%=      5-min Rain = 0
KBR1 262208Z 18020KT 28/15 A2983 RMK A01 T02750152  RH  047%=      5-min Rain = 0
KBR1 262209Z 17023G28KT 28/15 A2983 RMK A01 T02760151  RH  046%=      5-min Rain = 0
KBR1 262210Z 17022KT 28/15 A2983 RMK A01 T02760152  RH  047%=      5-min Rain = 0
KBR1 262211Z 17021KT 28/15 A2983 RMK A01 T02760150  RH  046%=      5-min Rain = 0
KBR1 262212Z 17018G23KT 28/15 A2983 RMK A01 T02770151  RH  046%=      5-min Rain = 0
KBR1 262213Z 17020G25KT 28/15 A2982 RMK A01 T02810152  RH  046%=      5-min Rain = 0
KBR1 262214Z 16021G27KT 28/15 A2982 RMK A01 T02810146  RH  044%=      5-min Rain = 0
KBR1 262215Z 16021G26KT 28/15 A2982 RMK A01 T02810145  RH  043%=      5-min Rain = 0
KBR1 262216Z 16021KT 28/14 A2982 RMK A01 T02810141  RH  042%=      5-min Rain = 0
KBR1 262217Z 17021G27KT 28/14 A2982 RMK A01 T02820139  RH  041%=      5-min Rain = 0
KBR1 262218Z 17022G27KT 28/14 A2982 RMK A01 T02830140  RH  042%=      5-min Rain = 0
KBR1 262219Z 18022KT 28/14 A2982 RMK A01 T02830140  RH  042%=      5-min Rain = 0
KBR1 262220Z 17020KT 28/14 A2982 RMK A01 T02810141  RH  042%=      5-min Rain = 0
KBR1 262221Z 18022KT 28/14 A2982 RMK A01 T02820144  RH  043%=      5-min Rain = 0
KBR1 262222Z 17021KT 28/14 A2982 RMK A01 T02820144  RH  043%=      5-min Rain = 0
KBR1 262223Z 17019G24KT 28/15 A2981 RMK A01 T02820147  RH  044%=      5-min Rain = 0
KBR1 262224Z 16023G29KT 29/14 A2981 RMK A01 T02860143  RH  042%=      5-min Rain = 0
KBR1 262225Z 16023KT 29/14 A2981 RMK A01 T02860139  RH  041%=      5-min Rain = 0
KBR1 262226Z 17020G26KT 28/14 A2981 RMK A01 T02840139  RH  041%=      5-min Rain = 0
KBR1 262227Z 17023KT 28/14 A2981 RMK A01 T02840142  RH  042%=      5-min Rain = 0
KBR1 262228Z 17021G27KT 28/14 A2981 RMK A01 T02840141  RH  042%=      5-min Rain = 0
KBR1 262229Z 17024KT 28/14 A298 RMK A01 T02840140  RH  041%=      5-min Rain = 0
KBR1 262230Z 17026KT 28/14 A298 RMK A01 T02820141  RH  042%=      5-min Rain = 0
KBR1 262231Z 16021KT 28/14 A298 RMK A01 T02810141  RH  042%=      5-min Rain = 0
KBR1 262232Z 18022KT 28/14 A298 RMK A01 T02810143  RH  043%=      5-min Rain = 0
KBR1 262233Z 17020KT 28/14 A298 RMK A01 T02830143  RH  043%=      5-min Rain = 0
KBR1 262234Z 16020G25KT 28/16 A298 RMK A01 T02820156  RH  046%=      5-min Rain = 0
KBR1 262235Z 16021KT 28/16 A298 RMK A01 T02810160  RH  048%=      5-min Rain = 0
KBR1 262236Z 16022KT 28/16 A298 RMK A01 T02790161  RH  048%=      5-min Rain = 0
KBR1 262237Z 15022KT 28/16 A2979 RMK A01 T02790160  RH  048%=      5-min Rain = 0
KBR1 262238Z 15021KT 28/16 A2979 RMK A01 T02800157  RH  047%=      5-min Rain = 0
KBR1 262239Z 17021G27KT 28/16 A2979 RMK A01 T02820158  RH  047%=      5-min Rain = 0
KBR1 262240Z 18022G27KT 28/15 A2979 RMK A01 T02830151  RH  045%=      5-min Rain = 0
KBR1 262241Z 17022KT 28/15 A2979 RMK A01 T02840149  RH  044%=      5-min Rain = 0
KBR1 262242Z 17024KT 28/15 A2979 RMK A01 T02830148  RH  044%=      5-min Rain = 0
KBR1 262243Z 17023KT 28/15 A2979 RMK A01 T02810150  RH  045%=      5-min Rain = 0
KBR1 262244Z 17019KT 28/15 A2979 RMK A01 T02800151  RH  045%=      5-min Rain = 0
KBR1 262245Z 17023KT 28/15 A2979 RMK A01 T02800148  RH  044%=      5-min Rain = 0
KBR1 262246Z 17022G31KT 28/15 A2978 RMK A01 T02800145  RH  044%=      5-min Rain = 0
KBR1 262247Z 17022G27KT 28/14 A2978 RMK A01 T02810135  RH  041%=      5-min Rain = 0
KBR1 262248Z 17021KT 28/15 A2978 RMK A01 T02830145  RH  043%=      5-min Rain = 0
KBR1 262249Z 16019KT 28/15 A2978 RMK A01 T02840153  RH  045%=      5-min Rain = 0
KBR1 262250Z 16023G31KT 28/16 A2978 RMK A01 T02840156  RH  046%=      5-min Rain = 0
KBR1 262251Z 16024KT 28/15 A2978 RMK A01 T02820149  RH  044%=      5-min Rain = 0
KBR1 262252Z 16022KT 28/15 A2978 RMK A01 T02800152  RH  046%=      5-min Rain = 0
KBR1 262253Z 16021KT 28/15 A2978 RMK A01 T02800152  RH  046%=      5-min Rain = 0
KBR1 262254Z 16022G27KT 28/15 A2978 RMK A01 T02800152  RH  046%=      5-min Rain = 0
KBR1 262255Z 15023G29KT 28/15 A2978 RMK A01 T02790153  RH  046%=      5-min Rain = 0
KBR1 262256Z 16025KT 28/15 A2978 RMK A01 T02800150  RH  045%=      5-min Rain = 0
KBR1 262257Z 16025G30KT 28/15 A2978 RMK A01 T02800148  RH  045%=      5-min Rain = 0
KBR1 262258Z 16023KT 28/15 A2978 RMK A01 T02790148  RH  045%=      5-min Rain = 0
KBR1 262259Z 17024G30KT 28/15 A2977 RMK A01 T02790148  RH  045%=      5-min Rain = 0
KBR1 262300Z 16025G31KT 28/15 A2977 RMK A01 T02800152  RH  046%=      5-min Rain = 0
KBR1 262301Z 16024G30KT 28/16 A2977 RMK A01 T02780155  RH  047%=      5-min Rain = 0
KBR1 262302Z 16022G28KT 28/16 A2977 RMK A01 T02770155  RH  048%=      5-min Rain = 0
KBR1 262303Z 16020KT 28/16 A2977 RMK A01 T02770156  RH  048%=      5-min Rain = 0
KBR1 262304Z 16025G31KT 28/15 A2977 RMK A01 T02790149  RH  045%=      5-min Rain = 0
KBR1 262305Z 17024KT 28/15 A2977 RMK A01 T02780149  RH  045%=      5-min Rain = 0
KBR1 262306Z 16021G27KT 28/15 A2977 RMK A01 T02770146  RH  045%=      5-min Rain = 0
KBR1 262307Z 16022G27KT 28/14 A2976 RMK A01 T02770143  RH  044%=      5-min Rain = 0
KBR1 262308Z 15022KT 28/15 A2976 RMK A01 T02770148  RH  045%=      5-min Rain = 0
KBR1 262309Z 15022G28KT 28/15 A2976 RMK A01 T02770151  RH  046%=      5-min Rain = 0
KBR1 262310Z 15025G30KT 28/15 A2976 RMK A01 T02770145  RH  044%=      5-min Rain = 0
KBR1 262311Z 15026KT 28/14 A2975 RMK A01 T02760137  RH  042%=      5-min Rain = 0
KBR1 262312Z 16022G29KT 28/14 A2975 RMK A01 T02750136  RH  042%=      5-min Rain = 0
KBR1 262313Z 16024G30KT 28/14 A2975 RMK A01 T02750137  RH  043%=      5-min Rain = 0
KBR1 262314Z 16029KT 28/14 A2975 RMK A01 T02750138  RH  043%=      5-min Rain = 0
KBR1 262315Z 16027G34KT 27/14 A2975 RMK A01 T02730139  RH  044%=      5-min Rain = 0
KBR1 262316Z 15024KT 27/14 A2975 RMK A01 T02710143  RH  045%=      5-min Rain = 0
KBR1 262317Z 15026KT 27/14 A2975 RMK A01 T02700143  RH  046%=      5-min Rain = 0
KBR1 262318Z 16024G29KT 27/14 A2975 RMK A01 T02690141  RH  045%=      5-min Rain = 0
KBR1 262319Z 16028KT 27/13 A2975 RMK A01 T02690134  RH  043%=      5-min Rain = 0
KBR1 262320Z 16024G29KT 27/14 A2975 RMK A01 T02690139  RH  045%=      5-min Rain = 0
KBR1 262321Z 16026KT 27/14 A2975 RMK A01 T02690141  RH  046%=      5-min Rain = 0
KBR1 262322Z 16021KT 27/14 A2975 RMK A01 T02680141  RH  045%=      5-min Rain = 0
KBR1 262323Z 16022KT 27/15 A2975 RMK A01 T02680145  RH  047%=      5-min Rain = 0
KBR1 262324Z 15023KT 27/15 A2975 RMK A01 T02680153  RH  049%=      5-min Rain = 0
KBR1 262325Z 16024G29KT 27/15 A2975 RMK A01 T02660152  RH  050%=      5-min Rain = 0
KBR1 262326Z 15025KT 26/15 A2975 RMK A01 T02640148  RH  049%=      5-min Rain = 0
KBR1 262327Z 16022G29KT 26/15 A2975 RMK A01 T02620147  RH  049%=      5-min Rain = 0
KBR1 262328Z 16026G31KT 26/15 A2975 RMK A01 T02610148  RH  050%=      5-min Rain = 0
KBR1 262329Z 16023G30KT 26/15 A2975 RMK A01 T02600151  RH  051%=      5-min Rain = 0
KBR1 262330Z 16028KT 26/15 A2975 RMK A01 T02580152  RH  052%=      5-min Rain = 0
KBR1 262331Z 16026G31KT 26/15 A2975 RMK A01 T02570152  RH  052%=      5-min Rain = 0
KBR1 262332Z 16024G29KT 26/15 A2975 RMK A01 T02570152  RH  052%=      5-min Rain = 0
KBR1 262333Z 15023G30KT 26/15 A2975 RMK A01 T02560153  RH  053%=      5-min Rain = 0
KBR1 262334Z 16026G32KT 26/15 A2976 RMK A01 T02560154  RH  053%=      5-min Rain = 0
KBR1 262335Z 16025KT 26/16 A2976 RMK A01 T02550156  RH  054%=      5-min Rain = 0
KBR1 262336Z 15021KT 26/16 A2976 RMK A01 T02560159  RH  055%=      5-min Rain = 0
KBR1 262337Z 16024KT 26/16 A2976 RMK A01 T02550163  RH  057%=      5-min Rain = 0
KBR1 262338Z 15020G27KT 25/17 A2977 RMK A01 T02530165  RH  058%=      5-min Rain = 0
KBR1 262339Z 15025G31KT 25/17 A2977 RMK A01 T02530166  RH  059%=      5-min Rain = 0
KBR1 262340Z 16020KT 25/17 A2977 RMK A01 T02520167  RH  059%=      5-min Rain = 0
KBR1 262341Z 16018G24KT 25/17 A2977 RMK A01 T02520166  RH  059%=      5-min Rain = 0
KBR1 262342Z 16030KT 25/17 A2977 RMK A01 T02510166  RH  059%=      5-min Rain = 0
KBR1 262343Z 17027G32KT 25/17 A2977 RMK A01 T02500168  RH  061%=      5-min Rain = 0
KBR1 262344Z 16028G33KT 25/17 A2977 RMK A01 T02490169  RH  061%=      5-min Rain = 0
KBR1 262345Z 16023G28KT 25/17 A2977 RMK A01 T02480168  RH  061%=      5-min Rain = 0
KBR1 262346Z 16025G31KT 25/17 A2977 RMK A01 T02480169  RH  061%=      5-min Rain = 0
KBR1 262347Z 16024G31KT 25/17 A2978 RMK A01 T02480169  RH  061%=      5-min Rain = 0
KBR1 262348Z 16027G32KT 25/17 A2978 RMK A01 T02470168  RH  061%=      5-min Rain = 0
KBR1 262349Z 16026G31KT 25/17 A2978 RMK A01 T02470168  RH  061%=      5-min Rain = 0
KBR1 262350Z 16023KT 25/17 A2978 RMK A01 T02470169  RH  062%=      5-min Rain = 0
KBR1 262351Z 16021G26KT 25/17 A2978 RMK A01 T02470169  RH  062%=      5-min Rain = 0
KBR1 262352Z 16023KT 25/17 A2978 RMK A01 T02470171  RH  063%=      5-min Rain = 0
KBR1 262353Z 15023G28KT 25/17 A2978 RMK A01 T02460172  RH  063%=      5-min Rain = 0
KBR1 262354Z 16023G28KT 25/17 A2978 RMK A01 T02450174  RH  064%=      5-min Rain = 0
KBR1 262355Z 16021G26KT 24/18 A2978 RMK A01 T02440176  RH  065%=      5-min Rain = 0
KBR1 262356Z 16024KT 24/18 A2978 RMK A01 T02430177  RH  066%=      5-min Rain = 0
KBR1 262357Z 16023G29KT 24/18 A2978 RMK A01 T02420177  RH  067%=      5-min Rain = 0
KBR1 262358Z 15024KT 24/18 A2978 RMK A01 T02400177  RH  068%=      5-min Rain = 0
KBR1 262359Z 16022G27KT 24/18 A2977 RMK A01 T02400177  RH  068%=      5-min Rain = 0
KBR1 270000Z 16024G30KT 24/18 A2977 RMK A01 T02390177  RH  068%=      5-min Rain = 0
KBR1 270001Z 15023G28KT 24/18 A2977 RMK A01 T02390178  RH  069%=      5-min Rain = 0
KBR1 270002Z 15028G34KT 24/18 A2976 RMK A01 T02380177  RH  069%=      5-min Rain = 0
KBR1 270003Z 15028KT 24/18 A2975 RMK A01 T02380176  RH  068%=      5-min Rain = 0
KBR1 270004Z 15026G34KT 24/18 A2975 RMK A01 T02370176  RH  069%=      5-min Rain = 0
KBR1 270005Z 15024KT 24/18 A2975 RMK A01 T02370177  RH  069%=      5-min Rain = 0
KBR1 270006Z 15028KT 24/18 A2974 RMK A01 T02360177  RH  069%=      5-min Rain = 0
KBR1 270007Z 15027KT 24/18 A2974 RMK A01 T02360177  RH  069%=      5-min Rain = 0
KBR1 270008Z 15030G38KT 24/18 A2973 RMK A01 T02360176  RH  069%=      5-min Rain = 0
KBR1 270009Z 15028G35KT 24/18 A2973 RMK A01 T02350176  RH  069%=      5-min Rain = 0
KBR1 270010Z 15026G34KT 24/18 A2973 RMK A01 T02350175  RH  069%=      5-min Rain = 0
KBR1 270011Z 15026KT 23/17 A2973 RMK A01 T02340174  RH  069%=      5-min Rain = 0
KBR1 270012Z 15025G30KT 23/18 A2973 RMK A01 T02340175  RH  070%=      5-min Rain = 0
KBR1 270013Z 15023G30KT 23/17 A2973 RMK A01 T02330174  RH  069%=      5-min Rain = 0
KBR1 270014Z 15027G34KT 23/18 A2972 RMK A01 T02330175  RH  070%=      5-min Rain = 0
KBR1 270015Z 14028G34KT 23/18 A2971 RMK A01 T02330175  RH  070%=      5-min Rain = 0
KBR1 270016Z 14029KT 23/18 A2971 RMK A01 T02330175  RH  070%=      5-min Rain = 0
KBR1 270017Z 14024G31KT 23/17 A2971 RMK A01 T02330174  RH  070%=      5-min Rain = 0
KBR1 270018Z 14023G30KT 23/17 A2972 RMK A01 T02330174  RH  070%=      5-min Rain = 0
KBR1 270019Z 14026KT 23/17 A2972 RMK A01 T02320174  RH  070%=      5-min Rain = 0
KBR1 270020Z 15027KT 23/18 A2973 RMK A01 T02320175  RH  070%=      5-min Rain = 0
KBR1 270021Z 15021G29KT 23/18 A2974 RMK A01 T02320175  RH  070%=      5-min Rain = 0
KBR1 270022Z 15021G28KT 23/18 A2975 RMK A01 T02320176  RH  071%=      5-min Rain = 0
KBR1 270023Z 15022G27KT 23/18 A2977 RMK A01 T02320176  RH  071%=      5-min Rain = 0
KBR1 270024Z 16024KT 23/18 A2979 RMK A01 T02310176  RH  071%=      5-min Rain = 0
KBR1 270025Z 17020G29KT 23/18 A298 RMK A01 T02320176  RH  071%=      5-min Rain = 0
KBR1 270026Z 18027G33KT 23/18 A2982 RMK A01 T02320175  RH  070%=      5-min Rain = 0
KBR1 270027Z 20019G28KT 23/18 A2985 RMK A01 T02330175  RH  070%=      5-min Rain = 0
KBR1 270028Z 24022G30KT 23/18 A2989 RMK A01 T02340176  RH  070%=      5-min Rain = 0
KBR1 270029Z 26026G32KT 23/14 A2991 RMK A01 T02290143  RH  059%=      5-min Rain = 0
KBR1 270030Z 26028G36KT 21/11 A2991 RMK A01 T02070113  RH  055%=      5-min Rain = 0
KBR1 270031Z 26034G43KT 19/10 A2992 RMK A01 T01910104  RH  057%=      5-min Rain = 0
KBR1 270032Z 26035G44KT 17/10 A2993 RMK A01 T01710104  RH  064%=      5-min Rain = 0
KBR1 270033Z 26029KT 15/11 A2993 RMK A01 T01530105  RH  073%=      5-min Rain = 0
KBR1 270034Z 27028G34KT 14/11 A2992 RMK A01 T01400106  RH  080%=      5-min Rain = 0
KBR1 270035Z 27030G37KT 13/10 A2993 RMK A01 T01280104  RH  085%=      5-min Rain = 0.04
KBR1 270036Z 27028G35KT 12/10 A2993 RMK A01 T01170098  RH  088%=      5-min Rain = 0.04
KBR1 270037Z 27024KT 11/09 A2994 RMK A01 T01080093  RH  090%=      5-min Rain = 0.05
KBR1 270038Z 26017G22KT 10/09 A2993 RMK A01 T01020090  RH  092%=      5-min Rain = 0.03
KBR1 270039Z 26019KT 10/09 A2993 RMK A01 T01000091  RH  094%=      5-min Rain = 0.03
KBR1 270040Z 27016G21KT 10/09 A2992 RMK A01 T01000093  RH  095%=      5-min Rain = 0.02
KBR1 270041Z 28012KT 10/09 A299 RMK A01 T01000093  RH  096%=      5-min Rain = 0.01
KBR1 270042Z 28011KT 10/09 A2989 RMK A01 T01000094  RH  096%=      5-min Rain = 0.01
KBR1 270043Z 28010KT 10/10 A2989 RMK A01 T01010095  RH  096%=      5-min Rain = 0
KBR1 270044Z 28009KT 10/10 A2989 RMK A01 T01010095  RH  096%=      5-min Rain = 0.01
KBR1 270045Z 27008KT 10/10 A2989 RMK A01 T01020096  RH  096%=      5-min Rain = 0
KBR1 270046Z 27006KT 10/10 A2989 RMK A01 T01020096  RH  096%=      5-min Rain = 0
KBR1 270047Z 27005KT 10/10 A2989 RMK A01 T01020096  RH  096%=      5-min Rain = 0
KBR1 270048Z 27004KT 10/10 A2989 RMK A01 T01030097  RH  096%=      5-min Rain = 0
KBR1 270049Z 26004KT 10/10 A2989 RMK A01 T01030097  RH  096%=      5-min Rain = 0
KBR1 270050Z 27003KT 10/10 A2989 RMK A01 T01030097  RH  096%=      5-min Rain = 0
KBR1 270051Z 29003KT 10/10 A299 RMK A01 T01030097  RH  096%=      5-min Rain = 0
KBR1 270052Z 30003KT 10/10 A299 RMK A01 T01040098  RH  096%=      5-min Rain = 0
KBR1 270053Z 32003KT 10/10 A2989 RMK A01 T01040099  RH  096%=      5-min Rain = 0
KBR1 270054Z 32004KT 11/10 A2989 RMK A01 T01050100  RH  096%=      5-min Rain = 0
KBR1 270055Z 32003KT 11/10 A2988 RMK A01 T01050100  RH  096%=      5-min Rain = 0
KBR1 270056Z 33004KT 11/10 A2988 RMK A01 T01060101  RH  096%=      5-min Rain = 0
KBR1 270057Z 34006KT 11/10 A2988 RMK A01 T01070101  RH  096%=      5-min Rain = 0
KBR1 270058Z 34006KT 11/10 A2987 RMK A01 T01080101  RH  096%=      5-min Rain = 0
KBR1 270059Z 35006KT 11/10 A2987 RMK A01 T01080102  RH  096%=      5-min Rain = 0
KBR1 270100Z 35006KT 11/10 A2986 RMK A01 T01080102  RH  096%=      5-min Rain = 0
KBR1 270101Z 36006KT 11/10 A2986 RMK A01 T01080102  RH  096%=      5-min Rain = 0
KBR1 270102Z 00006KT 11/10 A2986 RMK A01 T01090103  RH  096%=      5-min Rain = 0
KBR1 270103Z 00006KT 11/10 A2986 RMK A01 T01100104  RH  096%=      5-min Rain = 0
KBR1 270104Z 01006KT 11/10 A2986 RMK A01 T01100103  RH  096%=      5-min Rain = 0
KBR1 270105Z 02006KT 11/10 A2986 RMK A01 T01100103  RH  095%=      5-min Rain = 0
KBR1 270106Z 02006KT 11/10 A2986 RMK A01 T01100103  RH  095%=      5-min Rain = 0
KBR1 270107Z 03006KT 11/10 A2986 RMK A01 T01090102  RH  095%=      5-min Rain = 0
KBR1 270108Z 04005KT 11/10 A2986 RMK A01 T01100103  RH  095%=      5-min Rain = 0
KBR1 270109Z 07005KT 11/10 A2986 RMK A01 T01100103  RH  096%=      5-min Rain = 0
KBR1 270110Z 10006KT 11/10 A2986 RMK A01 T01100103  RH  095%=      5-min Rain = 0
KBR1 270111Z 12008KT 11/10 A2987 RMK A01 T01110104  RH  096%=      5-min Rain = 0
KBR1 270112Z 12010KT 11/11 A2988 RMK A01 T01120106  RH  096%=      5-min Rain = 0
KBR1 270113Z 13014KT 11/11 A2988 RMK A01 T01130107  RH  096%=      5-min Rain = 0
KBR1 270114Z 13017KT 11/11 A2989 RMK A01 T01130106  RH  096%=      5-min Rain = 0
KBR1 270115Z 14019KT 11/11 A2989 RMK A01 T01130106  RH  096%=      5-min Rain = 0
KBR1 270116Z 14019KT 11/11 A2989 RMK A01 T01130106  RH  096%=      5-min Rain = 0
KBR1 270117Z 14014KT 11/11 A299 RMK A01 T01130107  RH  096%=      5-min Rain = 0
KBR1 270118Z 14012G17KT 11/11 A2989 RMK A01 T01140106  RH  095%=      5-min Rain = 0
KBR1 270119Z 14012KT 12/11 A2989 RMK A01 T01150107  RH  095%=      5-min Rain = 0
KBR1 270120Z 14011KT 12/11 A2989 RMK A01 T01160108  RH  095%=      5-min Rain = 0
KBR1 270121Z 13013G18KT 12/11 A2989 RMK A01 T01170108  RH  094%=      5-min Rain = 0
KBR1 270122Z 13016KT 12/11 A2989 RMK A01 T01180107  RH  093%=      5-min Rain = 0
KBR1 270123Z 13015KT 12/11 A2989 RMK A01 T01190107  RH  093%=      5-min Rain = 0
KBR1 270124Z 13016KT 12/11 A2989 RMK A01 T01190109  RH  094%=      5-min Rain = 0
KBR1 270125Z 13015KT 12/11 A2989 RMK A01 T01190110  RH  094%=      5-min Rain = 0
KBR1 270126Z 13016KT 12/11 A2988 RMK A01 T01200111  RH  094%=      5-min Rain = 0
KBR1 270127Z 13015KT 12/11 A2988 RMK A01 T01190111  RH  095%=      5-min Rain = 0
KBR1 270128Z 13016KT 12/11 A2988 RMK A01 T01200111  RH  095%=      5-min Rain = 0
KBR1 270129Z 13015KT 12/11 A2988 RMK A01 T01190111  RH  095%=      5-min Rain = 0
KBR1 270130Z 12014KT 12/11 A2988 RMK A01 T01180111  RH  095%=      5-min Rain = 0
KBR1 270131Z 13012KT 12/11 A2989 RMK A01 T01180111  RH  095%=      5-min Rain = 0
KBR1 270132Z 13014KT 12/11 A2989 RMK A01 T01180111  RH  095%=      5-min Rain = 0
KBR1 270133Z 13013KT 12/11 A2989 RMK A01 T01170110  RH  095%=      5-min Rain = 0
KBR1 270134Z 12012KT 12/11 A2989 RMK A01 T01170110  RH  095%=      5-min Rain = 0
KBR1 270135Z 12011KT 12/11 A2989 RMK A01 T01170110  RH  095%=      5-min Rain = 0
KBR1 270136Z 12012KT 12/11 A2989 RMK A01 T01170110  RH  095%=      5-min Rain = 0
KBR1 270137Z 13012KT 12/11 A2989 RMK A01 T01170110  RH  095%=      5-min Rain = 0
KBR1 270138Z 13012KT 12/11 A299 RMK A01 T01180110  RH  095%=      5-min Rain = 0
KBR1 270139Z 13012KT 12/11 A299 RMK A01 T01180110  RH  095%=      5-min Rain = 0
KBR1 270140Z 13012KT 12/11 A2991 RMK A01 T01180111  RH  095%=      5-min Rain = 0
KBR1 270141Z 13013KT 12/11 A2991 RMK A01 T01190111  RH  095%=      5-min Rain = 0
KBR1 270142Z 13013KT 12/11 A2991 RMK A01 T01190111  RH  095%=      5-min Rain = 0
KBR1 270143Z 12014KT 12/11 A2991 RMK A01 T01190111  RH  095%=      5-min Rain = 0
KBR1 270144Z 12013KT 12/11 A2991 RMK A01 T01190111  RH  095%=      5-min Rain = 0
KBR1 270145Z 13012KT 12/11 A2991 RMK A01 T01190111  RH  095%=      5-min Rain = 0
KBR1 270146Z 13014KT 12/11 A2991 RMK A01 T01190111  RH  095%=      5-min Rain = 0
KBR1 270147Z 13013KT 12/11 A2991 RMK A01 T01190110  RH  094%=      5-min Rain = 0
KBR1 270148Z 13011KT 12/11 A2991 RMK A01 T01200110  RH  094%=      5-min Rain = 0
KBR1 270149Z 13013KT 12/11 A2991 RMK A01 T01200111  RH  094%=      5-min Rain = 0
KBR1 270150Z 13013KT 12/11 A2991 RMK A01 T01200111  RH  094%=      5-min Rain = 0
KBR1 270151Z 13013KT 12/11 A2991 RMK A01 T01200111  RH  094%=      5-min Rain = 0
KBR1 270152Z 13013KT 12/11 A2991 RMK A01 T01210112  RH  094%=      5-min Rain = 0
KBR1 270153Z 13013KT 12/11 A2991 RMK A01 T01210111  RH  094%=      5-min Rain = 0
KBR1 270154Z 13012KT 12/11 A2991 RMK A01 T01210112  RH  094%=      5-min Rain = 0
KBR1 270155Z 13014KT 12/11 A2991 RMK A01 T01210112  RH  094%=      5-min Rain = 0
KBR1 270156Z 13012KT 12/11 A2991 RMK A01 T01210112  RH  094%=      5-min Rain = 0
KBR1 270157Z 13011KT 12/11 A2991 RMK A01 T01210112  RH  094%=      5-min Rain = 0
KBR1 270158Z 13011KT 12/11 A2991 RMK A01 T01210112  RH  094%=      5-min Rain = 0
KBR1 270159Z 13012KT 12/11 A2991 RMK A01 T01210112  RH  094%=      5-min Rain = 0
KBR1 270200Z 13011KT 12/11 A2991 RMK A01 T01220113  RH  094%=      5-min Rain = 0
KBR1 270201Z 13010KT 12/11 A2991 RMK A01 T01220113  RH  094%=      5-min Rain = 0
KBR1 270202Z 12010KT 12/11 A299 RMK A01 T01220113  RH  094%=      5-min Rain = 0
KBR1 270203Z 12010KT 12/11 A299 RMK A01 T01230114  RH  094%=      5-min Rain = 0
KBR1 270204Z 12009KT 12/11 A299 RMK A01 T01230114  RH  094%=      5-min Rain = 0
KBR1 270205Z 12009KT 12/11 A299 RMK A01 T01230114  RH  094%=      5-min Rain = 0
KBR1 270206Z 13009KT 12/11 A299 RMK A01 T01230114  RH  094%=      5-min Rain = 0
KBR1 270207Z 12008KT 12/11 A299 RMK A01 T01240114  RH  094%=      5-min Rain = 0
KBR1 270208Z 13008KT 12/11 A2991 RMK A01 T01240114  RH  094%=      5-min Rain = 0
KBR1 270209Z 13008KT 12/12 A2991 RMK A01 T01240115  RH  094%=      5-min Rain = 0
KBR1 270210Z 13007KT 13/12 A2991 RMK A01 T01250115  RH  094%=      5-min Rain = 0
KBR1 270211Z 13006KT 13/12 A2992 RMK A01 T01250115  RH  094%=      5-min Rain = 0
KBR1 270212Z 14005KT 13/12 A2992 RMK A01 T01250116  RH  094%=      5-min Rain = 0
KBR1 270213Z 14005KT 13/12 A2993 RMK A01 T01250116  RH  094%=      5-min Rain = 0
KBR1 270214Z 16003KT 13/12 A2994 RMK A01 T01250116  RH  094%=      5-min Rain = 0
KBR1 270215Z 17004KT 13/12 A2994 RMK A01 T01260116  RH  094%=      5-min Rain = 0
KBR1 270216Z 19004KT 13/12 A2995 RMK A01 T01260116  RH  094%=      5-min Rain = 0
KBR1 270217Z 19004KT 13/12 A2995 RMK A01 T01270116  RH  093%=      5-min Rain = 0
KBR1 270218Z 20004KT 13/12 A2995 RMK A01 T01270116  RH  093%=      5-min Rain = 0
KBR1 270219Z 21004KT 13/12 A2995 RMK A01 T01270117  RH  093%=      5-min Rain = 0
KBR1 270220Z 20004KT 13/12 A2995 RMK A01 T01270117  RH  093%=      5-min Rain = 0
KBR1 270221Z 18003KT 13/12 A2995 RMK A01 T01270117  RH  093%=      5-min Rain = 0
KBR1 270222Z 16004KT 13/12 A2994 RMK A01 T01270117  RH  094%=      5-min Rain = 0
KBR1 270223Z 15004KT 13/12 A2994 RMK A01 T01270118  RH  094%=      5-min Rain = 0
KBR1 270224Z 14005KT 13/12 A2994 RMK A01 T01270118  RH  094%=      5-min Rain = 0
KBR1 270225Z 14005KT 13/12 A2994 RMK A01 T01270118  RH  094%=      5-min Rain = 0
KBR1 270226Z 14006KT 13/12 A2994 RMK A01 T01280118  RH  094%=      5-min Rain = 0
KBR1 270227Z 14005KT 13/12 A2994 RMK A01 T01280118  RH  094%=      5-min Rain = 0
KBR1 270228Z 13005KT 13/12 A2994 RMK A01 T01280118  RH  093%=      5-min Rain = 0
KBR1 270229Z 14005KT 13/12 A2994 RMK A01 T01280118  RH  093%=      5-min Rain = 0
KBR1 270230Z 15004KT 13/12 A2994 RMK A01 T01280118  RH  093%=      5-min Rain = 0
KBR1 270231Z 15003KT 13/12 A2994 RMK A01 T01290118  RH  093%=      5-min Rain = 0
KBR1 270232Z 14004KT 13/12 A2994 RMK A01 T01290118  RH  093%=      5-min Rain = 0
KBR1 270233Z 14004KT 13/12 A2994 RMK A01 T01290118  RH  093%=      5-min Rain = 0
KBR1 270234Z 13005KT 13/12 A2993 RMK A01 T01300118  RH  092%=      5-min Rain = 0
KBR1 270235Z 13006KT 13/12 A2993 RMK A01 T01310118  RH  092%=      5-min Rain = 0
KBR1 270236Z 13008KT 13/12 A2993 RMK A01 T01320118  RH  091%=      5-min Rain = 0
KBR1 270237Z 13009KT 13/12 A2992 RMK A01 T01330118  RH  091%=      5-min Rain = 0
KBR1 270238Z 13009KT 13/12 A2992 RMK A01 T01330119  RH  091%=      5-min Rain = 0
KBR1 270239Z 12009KT 13/12 A2992 RMK A01 T01330119  RH  091%=      5-min Rain = 0
KBR1 270240Z 13010KT 13/12 A2992 RMK A01 T01330119  RH  091%=      5-min Rain = 0
KBR1 270241Z 13010KT 13/12 A2992 RMK A01 T01330119  RH  091%=      5-min Rain = 0
KBR1 270242Z 13010KT 13/12 A2992 RMK A01 T01340119  RH  091%=      5-min Rain = 0
KBR1 270243Z 12010KT 13/12 A2991 RMK A01 T01330119  RH  091%=      5-min Rain = 0
KBR1 270244Z 12010KT 13/12 A2991 RMK A01 T01330118  RH  090%=      5-min Rain = 0
KBR1 270245Z 12009KT 13/12 A2991 RMK A01 T01340118  RH  090%=      5-min Rain = 0
KBR1 270246Z 12008KT 13/12 A2991 RMK A01 T01340118  RH  090%=      5-min Rain = 0
KBR1 270247Z 12008KT 13/12 A2991 RMK A01 T01340119  RH  090%=      5-min Rain = 0
KBR1 270248Z 11007KT 13/12 A2991 RMK A01 T01340120  RH  091%=      5-min Rain = 0
KBR1 270249Z 12007KT 13/12 A2991 RMK A01 T01340120  RH  091%=      5-min Rain = 0
KBR1 270250Z 12007KT 13/12 A2991 RMK A01 T01340120  RH  091%=      5-min Rain = 0
KBR1 270251Z 12007KT 13/12 A2991 RMK A01 T01340120  RH  092%=      5-min Rain = 0
KBR1 270252Z 12006KT 13/12 A2992 RMK A01 T01340119  RH  091%=      5-min Rain = 0
KBR1 270253Z 12007KT 13/12 A2992 RMK A01 T01340120  RH  091%=      5-min Rain = 0
KBR1 270254Z 12007KT 14/12 A2991 RMK A01 T01350120  RH  090%=      5-min Rain = 0
KBR1 270255Z 12008KT 14/12 A2991 RMK A01 T01360120  RH  090%=      5-min Rain = 0
KBR1 270256Z 13007KT 14/12 A2991 RMK A01 T01370119  RH  089%=      5-min Rain = 0
KBR1 270257Z 12006KT 14/12 A2991 RMK A01 T01380119  RH  088%=      5-min Rain = 0
KBR1 270258Z 12007KT 14/12 A2991 RMK A01 T01380119  RH  088%=      5-min Rain = 0
KBR1 270259Z 12007KT 14/12 A2991 RMK A01 T01390119  RH  088%=      5-min Rain = 0
KBR1 270300Z 12008KT 14/12 A2991 RMK A01 T01380119  RH  088%=      5-min Rain = 0
KBR1 270301Z 13006KT 14/12 A2991 RMK A01 T01390119  RH  088%=      5-min Rain = 0
KBR1 270302Z 14007KT 14/12 A2991 RMK A01 T01390119  RH  087%=      5-min Rain = 0
KBR1 270303Z 15006KT 14/12 A2991 RMK A01 T01390118  RH  087%=      5-min Rain = 0
KBR1 270304Z 15005KT 14/12 A2991 RMK A01 T01390117  RH  087%=      5-min Rain = 0
KBR1 270305Z 14004KT 14/12 A2991 RMK A01 T01390118  RH  087%=      5-min Rain = 0
KBR1 270306Z 14004KT 14/12 A2991 RMK A01 T01390118  RH  087%=      5-min Rain = 0
KBR1 270307Z 14005KT 14/12 A2991 RMK A01 T01390118  RH  087%=      5-min Rain = 0
KBR1 270308Z 14006KT 14/12 A2991 RMK A01 T01390119  RH  087%=      5-min Rain = 0
KBR1 270309Z 13006KT 14/12 A2991 RMK A01 T01390119  RH  087%=      5-min Rain = 0
KBR1 270310Z 13005KT 14/12 A2991 RMK A01 T01390118  RH  087%=      5-min Rain = 0
KBR1 270311Z 14005KT 14/12 A2991 RMK A01 T01390118  RH  087%=      5-min Rain = 0
KBR1 270312Z 14005KT 14/12 A2991 RMK A01 T01400118  RH  087%=      5-min Rain = 0
KBR1 270313Z 13004KT 14/12 A299 RMK A01 T01400118  RH  086%=      5-min Rain = 0
KBR1 270314Z 12003KT 14/12 A299 RMK A01 T01400117  RH  086%=      5-min Rain = 0
KBR1 270315Z 13003KT 14/12 A299 RMK A01 T01400117  RH  086%=      5-min Rain = 0
KBR1 270316Z 12002KT 14/12 A299 RMK A01 T01400118  RH  086%=      5-min Rain = 0
KBR1 270317Z 11001KT 14/12 A299 RMK A01 T01400118  RH  087%=      5-min Rain = 0
KBR1 270318Z 33000KT 14/12 A299 RMK A01 T01400119  RH  087%=      5-min Rain = 0
KBR1 270319Z 32003KT 14/12 A299 RMK A01 T01390120  RH  088%=      5-min Rain = 0
KBR1 270320Z 32003KT 14/12 A299 RMK A01 T01380120  RH  089%=      5-min Rain = 0
KBR1 270321Z 32003KT 14/12 A2991 RMK A01 T01370120  RH  089%=      5-min Rain = 0
KBR1 270322Z 34003KT 14/12 A299 RMK A01 T01360119  RH  089%=      5-min Rain = 0
KBR1 270323Z 35003KT 14/12 A299 RMK A01 T01360119  RH  090%=      5-min Rain = 0
KBR1 270324Z 34004KT 14/12 A2991 RMK A01 T01360119  RH  090%=      5-min Rain = 0
KBR1 270325Z 33006KT 14/12 A2991 RMK A01 T01360120  RH  090%=      5-min Rain = 0
KBR1 270326Z 33006KT 14/12 A2991 RMK A01 T01360120  RH  090%=      5-min Rain = 0
KBR1 270327Z 32006KT 14/12 A2991 RMK A01 T01350120  RH  091%=      5-min Rain = 0
KBR1 270328Z 32005KT 13/12 A2991 RMK A01 T01340120  RH  091%=      5-min Rain = 0
KBR1 270329Z 31005KT 13/12 A2991 RMK A01 T01340120  RH  091%=      5-min Rain = 0
KBR1 270330Z 31005KT 13/12 A2991 RMK A01 T01330120  RH  091%=      5-min Rain = 0
KBR1 270331Z 30005KT 13/12 A2991 RMK A01 T01330119  RH  091%=      5-min Rain = 0
KBR1 270332Z 30006KT 13/12 A2991 RMK A01 T01330119  RH  091%=      5-min Rain = 0
KBR1 270333Z 30005KT 13/12 A2991 RMK A01 T01330120  RH  091%=      5-min Rain = 0
KBR1 270334Z 30004KT 13/12 A2991 RMK A01 T01330119  RH  091%=      5-min Rain = 0
KBR1 270335Z 29003KT 13/12 A2991 RMK A01 T01330119  RH  091%=      5-min Rain = 0
KBR1 270336Z 30003KT 13/12 A2991 RMK A01 T01330119  RH  091%=      5-min Rain = 0
KBR1 270337Z 31004KT 13/12 A2991 RMK A01 T01320118  RH  091%=      5-min Rain = 0
KBR1 270338Z 31004KT 13/12 A2991 RMK A01 T01330119  RH  091%=      5-min Rain = 0
KBR1 270339Z 31003KT 13/12 A2992 RMK A01 T01330118  RH  091%=      5-min Rain = 0
KBR1 270340Z 31003KT 13/12 A2992 RMK A01 T01330119  RH  091%=      5-min Rain = 0
KBR1 270341Z 32004KT 13/12 A2991 RMK A01 T01330119  RH  091%=      5-min Rain = 0
KBR1 270342Z 32003KT 13/12 A2991 RMK A01 T01330120  RH  092%=      5-min Rain = 0
KBR1 270343Z 33004KT 13/12 A2991 RMK A01 T01330120  RH  092%=      5-min Rain = 0
KBR1 270344Z 34004KT 13/12 A2991 RMK A01 T01320120  RH  092%=      5-min Rain = 0
KBR1 270345Z 34005KT 13/12 A2991 RMK A01 T01320120  RH  092%=      5-min Rain = 0
KBR1 270346Z 33005KT 13/12 A2991 RMK A01 T01310119  RH  093%=      5-min Rain = 0
KBR1 270347Z 33005KT 13/12 A2991 RMK A01 T01310120  RH  093%=      5-min Rain = 0
KBR1 270348Z 33005KT 13/12 A2991 RMK A01 T01310120  RH  093%=      5-min Rain = 0
KBR1 270349Z 32005KT 13/12 A2991 RMK A01 T01310120  RH  093%=      5-min Rain = 0
KBR1 270350Z 32004KT 13/12 A2991 RMK A01 T01310120  RH  093%=      5-min Rain = 0
KBR1 270351Z 32003KT 13/12 A2991 RMK A01 T01310120  RH  093%=      5-min Rain = 0
KBR1 270352Z 33002KT 13/12 A2991 RMK A01 T01310121  RH  093%=      5-min Rain = 0
KBR1 270353Z 01001KT 13/12 A2992 RMK A01 T01310121  RH  093%=      5-min Rain = 0
KBR1 270354Z 34001KT 13/12 A2992 RMK A01 T01320121  RH  093%=      5-min Rain = 0
KBR1 270355Z 30001KT 13/12 A2992 RMK A01 T01320122  RH  093%=      5-min Rain = 0
KBR1 270356Z 27002KT 13/12 A2992 RMK A01 T01320121  RH  093%=      5-min Rain = 0
KBR1 270357Z 29002KT 13/12 A2992 RMK A01 T01330122  RH  093%=      5-min Rain = 0
KBR1 270358Z 31002KT 13/12 A2992 RMK A01 T01330120  RH  092%=      5-min Rain = 0
KBR1 270359Z 30002KT 13/12 A2992 RMK A01 T01330120  RH  092%=      5-min Rain = 0
KBR1 270400Z 29001KT 13/12 A2992 RMK A01 T01340120  RH  091%=      5-min Rain = 0
KBR1 270401Z 29000KT 13/12 A2992 RMK A01 T01340121  RH  092%=      5-min Rain = 0
KBR1 270402Z 17000KT 14/12 A2992 RMK A01 T01350122  RH  092%=      5-min Rain = 0
KBR1 270403Z 34001KT 13/12 A2992 RMK A01 T01340121  RH  091%=      5-min Rain = 0
KBR1 270404Z 32003KT 14/12 A2992 RMK A01 T01350121  RH  091%=      5-min Rain = 0
KBR1 270405Z 31005KT 14/12 A2992 RMK A01 T01350121  RH  092%=      5-min Rain = 0
KBR1 270406Z 31004KT 14/12 A2992 RMK A01 T01350121  RH  091%=      5-min Rain = 0
KBR1 270407Z 32004KT 14/12 A2992 RMK A01 T01350121  RH  091%=      5-min Rain = 0
KBR1 270408Z 32004KT 14/12 A2992 RMK A01 T01350122  RH  092%=      5-min Rain = 0
KBR1 270409Z 31004KT 14/12 A2992 RMK A01 T01360122  RH  092%=      5-min Rain = 0
KBR1 270410Z 31004KT 14/12 A2992 RMK A01 T01360122  RH  091%=      5-min Rain = 0
KBR1 270411Z 31006KT 14/12 A2992 RMK A01 T01360122  RH  091%=      5-min Rain = 0
KBR1 270412Z 31006KT 14/12 A2992 RMK A01 T01370123  RH  091%=      5-min Rain = 0
KBR1 270413Z 32006KT 14/12 A2992 RMK A01 T01370123  RH  091%=      5-min Rain = 0
KBR1 270414Z 31006KT 14/12 A2992 RMK A01 T01370123  RH  091%=      5-min Rain = 0
KBR1 270415Z 31006KT 14/12 A2992 RMK A01 T01370123  RH  091%=      5-min Rain = 0
KBR1 270416Z 31005KT 14/12 A2992 RMK A01 T01370122  RH  091%=      5-min Rain = 0
KBR1 270417Z 32004KT 14/12 A2992 RMK A01 T01360121  RH  091%=      5-min Rain = 0
KBR1 270418Z 33003KT 14/12 A2992 RMK A01 T01360121  RH  091%=      5-min Rain = 0
KBR1 270419Z 33002KT 14/12 A2992 RMK A01 T01360121  RH  091%=      5-min Rain = 0
KBR1 270420Z 32003KT 14/12 A2992 RMK A01 T01360122  RH  091%=      5-min Rain = 0
KBR1 270421Z 29002KT 14/12 A2992 RMK A01 T01360122  RH  091%=      5-min Rain = 0
KBR1 270422Z 29001KT 14/12 A2992 RMK A01 T01360122  RH  091%=      5-min Rain = 0
KBR1 270423Z 28002KT 14/12 A2992 RMK A01 T01360121  RH  091%=      5-min Rain = 0
KBR1 270424Z 26002KT 14/12 A2992 RMK A01 T01360121  RH  091%=      5-min Rain = 0
KBR1 270425Z 22001KT 14/12 A2992 RMK A01 T01360122  RH  091%=      5-min Rain = 0
KBR1 270426Z 00000KT 14/12 A2992 RMK A01 T01360122  RH  091%=      5-min Rain = 0
KBR1 270427Z 00000KT 14/12 A2991 RMK A01 T01360122  RH  091%=      5-min Rain = 0
KBR1 270428Z 04000KT 14/12 A2991 RMK A01 T01360122  RH  091%=      5-min Rain = 0
KBR1 270429Z 35000KT 14/12 A2991 RMK A01 T01370122  RH  091%=      5-min Rain = 0
KBR1 270430Z 35000KT 14/12 A2991 RMK A01 T01370123  RH  091%=      5-min Rain = 0
KBR1 270431Z 35000KT 14/12 A2991 RMK A01 T01370123  RH  091%=      5-min Rain = 0
KBR1 270432Z 04001KT 14/12 A2991 RMK A01 T01370122  RH  091%=      5-min Rain = 0
KBR1 270433Z 03002KT 14/12 A299 RMK A01 T01380123  RH  091%=      5-min Rain = 0
KBR1 270434Z 02002KT 14/12 A299 RMK A01 T01380123  RH  091%=      5-min Rain = 0
KBR1 270435Z 03003KT 14/12 A299 RMK A01 T01380124  RH  091%=      5-min Rain = 0
KBR1 270436Z 04003KT 14/13 A299 RMK A01 T01390125  RH  092%=      5-min Rain = 0
KBR1 270437Z 03003KT 14/13 A299 RMK A01 T01380125  RH  092%=      5-min Rain = 0
KBR1 270438Z 01002KT 14/12 A299 RMK A01 T01390124  RH  091%=      5-min Rain = 0
KBR1 270439Z 01003KT 14/12 A299 RMK A01 T01390123  RH  090%=      5-min Rain = 0
KBR1 270440Z 02003KT 14/12 A2989 RMK A01 T01390123  RH  090%=      5-min Rain = 0
KBR1 270441Z 02003KT 14/12 A2989 RMK A01 T01390123  RH  090%=      5-min Rain = 0
KBR1 270442Z 03003KT 14/12 A2989 RMK A01 T01390123  RH  090%=      5-min Rain = 0
KBR1 270443Z 01002KT 14/13 A2989 RMK A01 T01400125  RH  091%=      5-min Rain = 0
KBR1 270444Z 35003KT 14/13 A2989 RMK A01 T01400125  RH  090%=      5-min Rain = 0
KBR1 270445Z 33004KT 14/12 A299 RMK A01 T01400122  RH  089%=      5-min Rain = 0
KBR1 270446Z 33003KT 14/12 A299 RMK A01 T01410121  RH  088%=      5-min Rain = 0
KBR1 270447Z 33002KT 14/12 A299 RMK A01 T01420123  RH  088%=      5-min Rain = 0
KBR1 270448Z 34002KT 14/12 A299 RMK A01 T01420121  RH  087%=      5-min Rain = 0
KBR1 270449Z 32002KT 14/12 A299 RMK A01 T01430122  RH  087%=      5-min Rain = 0
KBR1 270450Z 32002KT 14/12 A299 RMK A01 T01440124  RH  087%=      5-min Rain = 0
KBR1 270451Z 31002KT 15/13 A299 RMK A01 T01450126  RH  089%=      5-min Rain = 0
KBR1 270452Z 31002KT 15/13 A299 RMK A01 T01450127  RH  089%=      5-min Rain = 0
KBR1 270453Z 30003KT 15/13 A299 RMK A01 T01450127  RH  088%=      5-min Rain = 0
KBR1 270454Z 31003KT 15/13 A299 RMK A01 T01460125  RH  087%=      5-min Rain = 0
KBR1 270455Z 32003KT 15/13 A2989 RMK A01 T01460125  RH  087%=      5-min Rain = 0
KBR1 270456Z 32003KT 15/12 A2989 RMK A01 T01470123  RH  086%=      5-min Rain = 0
KBR1 270457Z 32003KT 15/12 A2989 RMK A01 T01470124  RH  086%=      5-min Rain = 0
KBR1 270458Z 33004KT 15/12 A2989 RMK A01 T01480124  RH  086%=      5-min Rain = 0
KBR1 270459Z 33004KT 15/13 A2989 RMK A01 T01480125  RH  086%=      5-min Rain = 0

Page generated in 0.0328 seconds.